<?xml version='1.0' encoding='UTF-8'?><gpx version="1.1" creator="JPX - https://github.com/jenetics/jpx" xmlns="http://www.topografix.com/GPX/1/1"><trk><trkseg><trkpt lat="40.8389733" lon="8.400875"><ele>0.9999999999999999</ele><time>2026-04-16T07:23:41.959Z</time></trkpt><trkpt lat="40.839045" lon="8.4008933"><ele>1.0</ele><time>2026-04-16T07:23:45.963Z</time></trkpt><trkpt lat="40.839105" lon="8.400855"><ele>1.0</ele><time>2026-04-16T07:23:48.956Z</time></trkpt><trkpt lat="40.8391267" lon="8.4007517"><ele>1.0</ele><time>2026-04-16T07:23:56.951Z</time></trkpt><trkpt lat="40.839075" lon="8.4006217"><ele>0.9999999999999999</ele><time>2026-04-16T07:23:58.971Z</time></trkpt><trkpt lat="40.839005" lon="8.400545"><ele>1.0</ele><time>2026-04-16T07:24:00.964Z</time></trkpt><trkpt lat="40.8389367" lon="8.40046"><ele>0.8333333333333333</ele><time>2026-04-16T07:24:02.954Z</time></trkpt><trkpt lat="40.83889" lon="8.4004033"><ele>0.6666666666666666</ele><time>2026-04-16T07:24:05.96Z</time></trkpt><trkpt lat="40.8388417" lon="8.4003067"><ele>0.5</ele><time>2026-04-16T07:25:18.958Z</time></trkpt><trkpt lat="40.8387483" lon="8.4002033"><ele>0.3333333333333333</ele><time>2026-04-16T07:25:20.957Z</time></trkpt><trkpt lat="40.8387017" lon="8.4001417"><ele>0.16666666666666666</ele><time>2026-04-16T07:25:21.964Z</time></trkpt><trkpt lat="40.8386567" lon="8.4000767"><ele>0.0</ele><time>2026-04-16T07:25:22.962Z</time></trkpt><trkpt lat="40.8386167" lon="8.4000067"><ele>0.0</ele><time>2026-04-16T07:25:23.957Z</time></trkpt><trkpt lat="40.838575" lon="8.3999317"><ele>0.0</ele><time>2026-04-16T07:25:24.959Z</time></trkpt><trkpt lat="40.8385367" lon="8.3998517"><ele>0.0</ele><time>2026-04-16T07:25:26.026Z</time></trkpt><trkpt lat="40.8385067" lon="8.399765"><ele>0.0</ele><time>2026-04-16T07:25:26.956Z</time></trkpt><trkpt lat="40.838485" lon="8.3996667"><ele>0.0</ele><time>2026-04-16T07:25:27.958Z</time></trkpt><trkpt lat="40.8384683" lon="8.399565"><ele>0.0</ele><time>2026-04-16T07:25:28.963Z</time></trkpt><trkpt lat="40.83846" lon="8.399465"><ele>0.0</ele><time>2026-04-16T07:25:29.954Z</time></trkpt><trkpt lat="40.8384583" lon="8.3993617"><ele>0.0</ele><time>2026-04-16T07:25:30.963Z</time></trkpt><trkpt lat="40.8384617" lon="8.3992567"><ele>0.0</ele><time>2026-04-16T07:25:32.021Z</time></trkpt><trkpt lat="40.8384767" lon="8.39915"><ele>0.0</ele><time>2026-04-16T07:25:32.956Z</time></trkpt><trkpt lat="40.838505" lon="8.3990367"><ele>0.0</ele><time>2026-04-16T07:25:33.963Z</time></trkpt><trkpt lat="40.8385533" lon="8.39892"><ele>0.0</ele><time>2026-04-16T07:25:34.96Z</time></trkpt><trkpt lat="40.838615" lon="8.3988"><ele>0.0</ele><time>2026-04-16T07:25:35.96Z</time></trkpt><trkpt lat="40.8386817" lon="8.3986817"><ele>0.0</ele><time>2026-04-16T07:25:36.964Z</time></trkpt><trkpt lat="40.8387417" lon="8.39857"><ele>0.0</ele><time>2026-04-16T07:25:38.004Z</time></trkpt><trkpt lat="40.8388017" lon="8.3984617"><ele>0.0</ele><time>2026-04-16T07:25:38.959Z</time></trkpt><trkpt lat="40.8388617" lon="8.398365"><ele>0.0</ele><time>2026-04-16T07:25:39.964Z</time></trkpt><trkpt lat="40.83892" lon="8.39827"><ele>0.0</ele><time>2026-04-16T07:25:40.964Z</time></trkpt><trkpt lat="40.838975" lon="8.3981733"><ele>0.0</ele><time>2026-04-16T07:25:41.963Z</time></trkpt><trkpt lat="40.8390283" lon="8.3980783"><ele>0.0</ele><time>2026-04-16T07:25:42.963Z</time></trkpt><trkpt lat="40.8390833" lon="8.3979917"><ele>0.0</ele><time>2026-04-16T07:25:44.004Z</time></trkpt><trkpt lat="40.83914" lon="8.3979083"><ele>0.0</ele><time>2026-04-16T07:25:44.953Z</time></trkpt><trkpt lat="40.8391983" lon="8.397815"><ele>0.0</ele><time>2026-04-16T07:25:45.96Z</time></trkpt><trkpt lat="40.8392533" lon="8.3977067"><ele>0.3333333333333333</ele><time>2026-04-16T07:25:46.96Z</time></trkpt><trkpt lat="40.83931" lon="8.397595"><ele>0.6666666666666666</ele><time>2026-04-16T07:25:47.962Z</time></trkpt><trkpt lat="40.839365" lon="8.3974867"><ele>1.0</ele><time>2026-04-16T07:25:48.957Z</time></trkpt><trkpt lat="40.83942" lon="8.3973883"><ele>1.3333333333333333</ele><time>2026-04-16T07:25:50.009Z</time></trkpt><trkpt lat="40.8394733" lon="8.39731"><ele>1.6666666666666665</ele><time>2026-04-16T07:25:50.952Z</time></trkpt><trkpt lat="40.839525" lon="8.39725"><ele>2.0</ele><time>2026-04-16T07:25:51.959Z</time></trkpt><trkpt lat="40.8395783" lon="8.397195"><ele>1.9999999999999998</ele><time>2026-04-16T07:25:52.96Z</time></trkpt><trkpt lat="40.8396283" lon="8.3971417"><ele>2.0</ele><time>2026-04-16T07:25:53.965Z</time></trkpt><trkpt lat="40.8396833" lon="8.3970067"><ele>2.0</ele><time>2026-04-16T07:25:55.985Z</time></trkpt><trkpt lat="40.83965" lon="8.3968733"><ele>2.0</ele><time>2026-04-16T07:25:57.967Z</time></trkpt><trkpt lat="40.839585" lon="8.3968133"><ele>1.9999999999999998</ele><time>2026-04-16T07:25:59.954Z</time></trkpt><trkpt lat="40.8395167" lon="8.3967717"><ele>2.0</ele><time>2026-04-16T07:26:02.961Z</time></trkpt><trkpt lat="40.8394383" lon="8.3968233"><ele>2.0</ele><time>2026-04-16T07:26:05.98Z</time></trkpt><trkpt lat="40.839415" lon="8.3969117"><ele>2.0</ele><time>2026-04-16T07:26:08.953Z</time></trkpt><trkpt lat="40.8394883" lon="8.396835"><ele>2.0</ele><time>2026-04-16T07:26:12.962Z</time></trkpt><trkpt lat="40.8394833" lon="8.396675"><ele>2.0</ele><time>2026-04-16T07:26:14.96Z</time></trkpt><trkpt lat="40.839475" lon="8.39656"><ele>2.0</ele><time>2026-04-16T07:26:15.965Z</time></trkpt><trkpt lat="40.8394717" lon="8.3964433"><ele>1.8</ele><time>2026-04-16T07:26:16.963Z</time></trkpt><trkpt lat="40.8394683" lon="8.396315"><ele>1.6</ele><time>2026-04-16T07:26:17.96Z</time></trkpt><trkpt lat="40.8394583" lon="8.39618"><ele>1.4000000000000001</ele><time>2026-04-16T07:26:18.963Z</time></trkpt><trkpt lat="40.839445" lon="8.3960467"><ele>1.2000000000000002</ele><time>2026-04-16T07:26:20.009Z</time></trkpt><trkpt lat="40.8394283" lon="8.395915"><ele>1.0</ele><time>2026-04-16T07:26:20.958Z</time></trkpt><trkpt lat="40.8394133" lon="8.3957867"><ele>1.0</ele><time>2026-04-16T07:26:21.963Z</time></trkpt><trkpt lat="40.8394" lon="8.39566"><ele>1.0</ele><time>2026-04-16T07:26:22.961Z</time></trkpt><trkpt lat="40.8393817" lon="8.3955283"><ele>1.0</ele><time>2026-04-16T07:26:23.957Z</time></trkpt><trkpt lat="40.8393633" lon="8.3953933"><ele>1.0</ele><time>2026-04-16T07:26:24.965Z</time></trkpt><trkpt lat="40.8393467" lon="8.3952667"><ele>1.0</ele><time>2026-04-16T07:26:26.02Z</time></trkpt><trkpt lat="40.8393333" lon="8.3951567"><ele>0.9999999999999999</ele><time>2026-04-16T07:26:26.951Z</time></trkpt><trkpt lat="40.8393267" lon="8.3950667"><ele>1.0</ele><time>2026-04-16T07:26:27.959Z</time></trkpt><trkpt lat="40.8393183" lon="8.3949233"><ele>1.0</ele><time>2026-04-16T07:26:29.953Z</time></trkpt><trkpt lat="40.8393233" lon="8.3948133"><ele>1.0</ele><time>2026-04-16T07:26:32.012Z</time></trkpt><trkpt lat="40.83934" lon="8.3947083"><ele>0.9999999999999999</ele><time>2026-04-16T07:26:33.96Z</time></trkpt><trkpt lat="40.839355" lon="8.3945883"><ele>1.0</ele><time>2026-04-16T07:26:35.964Z</time></trkpt><trkpt lat="40.839325" lon="8.3944617"><ele>0.9999999999999999</ele><time>2026-04-16T07:26:38.015Z</time></trkpt><trkpt lat="40.83924" lon="8.3943833"><ele>1.0</ele><time>2026-04-16T07:26:39.964Z</time></trkpt><trkpt lat="40.8391783" lon="8.3943667"><ele>1.0</ele><time>2026-04-16T07:26:40.955Z</time></trkpt><trkpt lat="40.839105" lon="8.3943617"><ele>1.0</ele><time>2026-04-16T07:26:41.956Z</time></trkpt><trkpt lat="40.8390217" lon="8.3943483"><ele>0.9999999999999999</ele><time>2026-04-16T07:26:42.96Z</time></trkpt><trkpt lat="40.8389317" lon="8.3943417"><ele>1.0</ele><time>2026-04-16T07:26:44.015Z</time></trkpt><trkpt lat="40.83883" lon="8.394345"><ele>1.0</ele><time>2026-04-16T07:26:44.959Z</time></trkpt><trkpt lat="40.838715" lon="8.3943617"><ele>1.0</ele><time>2026-04-16T07:26:45.961Z</time></trkpt><trkpt lat="40.8386033" lon="8.39438"><ele>1.0</ele><time>2026-04-16T07:26:46.956Z</time></trkpt><trkpt lat="40.8384933" lon="8.3944"><ele>1.0</ele><time>2026-04-16T07:26:47.95Z</time></trkpt><trkpt lat="40.8383817" lon="8.394415"><ele>1.6666666666666665</ele><time>2026-04-16T07:26:48.952Z</time></trkpt><trkpt lat="40.8382783" lon="8.3944233"><ele>2.3333333333333335</ele><time>2026-04-16T07:26:50.008Z</time></trkpt><trkpt lat="40.83819" lon="8.394415"><ele>3.0</ele><time>2026-04-16T07:26:50.953Z</time></trkpt><trkpt lat="40.838115" lon="8.3943833"><ele>3.666666666666667</ele><time>2026-04-16T07:26:51.952Z</time></trkpt><trkpt lat="40.83805" lon="8.3943183"><ele>4.333333333333334</ele><time>2026-04-16T07:26:52.963Z</time></trkpt><trkpt lat="40.83799" lon="8.39422"><ele>5.0</ele><time>2026-04-16T07:26:53.961Z</time></trkpt><trkpt lat="40.837935" lon="8.394095"><ele>5.0</ele><time>2026-04-16T07:26:54.964Z</time></trkpt><trkpt lat="40.837885" lon="8.3939517"><ele>5.0</ele><time>2026-04-16T07:26:56.027Z</time></trkpt><trkpt lat="40.8378467" lon="8.3937983"><ele>5.0</ele><time>2026-04-16T07:26:56.951Z</time></trkpt><trkpt lat="40.8378167" lon="8.393625"><ele>5.0</ele><time>2026-04-16T07:26:57.959Z</time></trkpt><trkpt lat="40.8377883" lon="8.3934333"><ele>4.5</ele><time>2026-04-16T07:26:58.951Z</time></trkpt><trkpt lat="40.83776" lon="8.39324"><ele>4.0</ele><time>2026-04-16T07:26:59.963Z</time></trkpt><trkpt lat="40.8377317" lon="8.3930533"><ele>3.5</ele><time>2026-04-16T07:27:00.96Z</time></trkpt><trkpt lat="40.8377033" lon="8.3928733"><ele>3.0</ele><time>2026-04-16T07:27:02.011Z</time></trkpt><trkpt lat="40.837675" lon="8.39269"><ele>3.0</ele><time>2026-04-16T07:27:02.949Z</time></trkpt><trkpt lat="40.8376483" lon="8.3925033"><ele>3.0</ele><time>2026-04-16T07:27:03.957Z</time></trkpt><trkpt lat="40.83762" lon="8.3923167"><ele>3.0</ele><time>2026-04-16T07:27:04.961Z</time></trkpt><trkpt lat="40.8375933" lon="8.39213"><ele>3.0</ele><time>2026-04-16T07:27:05.961Z</time></trkpt><trkpt lat="40.8375683" lon="8.39195"><ele>3.0</ele><time>2026-04-16T07:27:06.954Z</time></trkpt><trkpt lat="40.8375417" lon="8.3917783"><ele>3.0</ele><time>2026-04-16T07:27:08.011Z</time></trkpt><trkpt lat="40.8375133" lon="8.3916083"><ele>3.0</ele><time>2026-04-16T07:27:08.96Z</time></trkpt><trkpt lat="40.8374883" lon="8.39144"><ele>3.0</ele><time>2026-04-16T07:27:09.957Z</time></trkpt><trkpt lat="40.8374633" lon="8.3912767"><ele>3.5</ele><time>2026-04-16T07:27:10.96Z</time></trkpt><trkpt lat="40.83744" lon="8.3911167"><ele>4.0</ele><time>2026-04-16T07:27:11.962Z</time></trkpt><trkpt lat="40.8374133" lon="8.3909533"><ele>4.5</ele><time>2026-04-16T07:27:12.966Z</time></trkpt><trkpt lat="40.8373917" lon="8.3908017"><ele>5.0</ele><time>2026-04-16T07:27:14.008Z</time></trkpt><trkpt lat="40.837375" lon="8.3906567"><ele>5.0</ele><time>2026-04-16T07:27:14.956Z</time></trkpt><trkpt lat="40.837365" lon="8.3905183"><ele>5.0</ele><time>2026-04-16T07:27:15.963Z</time></trkpt><trkpt lat="40.837355" lon="8.3903767"><ele>5.0</ele><time>2026-04-16T07:27:16.961Z</time></trkpt><trkpt lat="40.8373517" lon="8.3902283"><ele>5.0</ele><time>2026-04-16T07:27:17.955Z</time></trkpt><trkpt lat="40.8373517" lon="8.3900733"><ele>5.0</ele><time>2026-04-16T07:27:18.956Z</time></trkpt><trkpt lat="40.8373567" lon="8.3899167"><ele>5.0</ele><time>2026-04-16T07:27:20.007Z</time></trkpt><trkpt lat="40.8373667" lon="8.3897583"><ele>5.0</ele><time>2026-04-16T07:27:20.955Z</time></trkpt><trkpt lat="40.8373833" lon="8.3895967"><ele>5.0</ele><time>2026-04-16T07:27:21.963Z</time></trkpt><trkpt lat="40.83741" lon="8.38943"><ele>5.0</ele><time>2026-04-16T07:27:22.964Z</time></trkpt><trkpt lat="40.8374417" lon="8.389265"><ele>5.0</ele><time>2026-04-16T07:27:23.955Z</time></trkpt><trkpt lat="40.8374767" lon="8.3891083"><ele>5.0</ele><time>2026-04-16T07:27:24.964Z</time></trkpt><trkpt lat="40.83751" lon="8.3889667"><ele>5.0</ele><time>2026-04-16T07:27:26.023Z</time></trkpt><trkpt lat="40.8375433" lon="8.3888333"><ele>5.0</ele><time>2026-04-16T07:27:26.951Z</time></trkpt><trkpt lat="40.8375767" lon="8.3887083"><ele>5.0</ele><time>2026-04-16T07:27:27.958Z</time></trkpt><trkpt lat="40.8376133" lon="8.38858"><ele>4.666666666666667</ele><time>2026-04-16T07:27:28.959Z</time></trkpt><trkpt lat="40.8376533" lon="8.3884567"><ele>4.333333333333334</ele><time>2026-04-16T07:27:29.962Z</time></trkpt><trkpt lat="40.8376983" lon="8.3883467"><ele>4.0</ele><time>2026-04-16T07:27:30.96Z</time></trkpt><trkpt lat="40.8377483" lon="8.3882567"><ele>3.666666666666667</ele><time>2026-04-16T07:27:32.022Z</time></trkpt><trkpt lat="40.8378033" lon="8.3881733"><ele>3.3333333333333335</ele><time>2026-04-16T07:27:32.957Z</time></trkpt><trkpt lat="40.83785" lon="8.3880883"><ele>3.0</ele><time>2026-04-16T07:27:33.951Z</time></trkpt><trkpt lat="40.83788" lon="8.3880033"><ele>2.6666666666666665</ele><time>2026-04-16T07:27:34.958Z</time></trkpt><trkpt lat="40.83786" lon="8.3879233"><ele>2.3333333333333335</ele><time>2026-04-16T07:27:35.953Z</time></trkpt><trkpt lat="40.8378183" lon="8.3878583"><ele>2.0</ele><time>2026-04-16T07:27:36.969Z</time></trkpt><trkpt lat="40.8377533" lon="8.3878267"><ele>1.6666666666666665</ele><time>2026-04-16T07:27:38.01Z</time></trkpt><trkpt lat="40.8376717" lon="8.3878283"><ele>1.3333333333333333</ele><time>2026-04-16T07:27:38.957Z</time></trkpt><trkpt lat="40.8375783" lon="8.38784"><ele>1.0</ele><time>2026-04-16T07:27:39.96Z</time></trkpt><trkpt lat="40.8374817" lon="8.3878317"><ele>2.2</ele><time>2026-04-16T07:27:40.963Z</time></trkpt><trkpt lat="40.8373833" lon="8.3878067"><ele>3.4</ele><time>2026-04-16T07:27:41.959Z</time></trkpt><trkpt lat="40.8372767" lon="8.3877867"><ele>4.6</ele><time>2026-04-16T07:27:42.965Z</time></trkpt><trkpt lat="40.837165" lon="8.38779"><ele>5.8</ele><time>2026-04-16T07:27:44.013Z</time></trkpt><trkpt lat="40.83705" lon="8.387815"><ele>7.0</ele><time>2026-04-16T07:27:44.955Z</time></trkpt><trkpt lat="40.8369367" lon="8.387845"><ele>7.0</ele><time>2026-04-16T07:27:45.959Z</time></trkpt><trkpt lat="40.836825" lon="8.387875"><ele>7.0</ele><time>2026-04-16T07:27:46.961Z</time></trkpt><trkpt lat="40.83671" lon="8.3879017"><ele>7.0</ele><time>2026-04-16T07:27:47.956Z</time></trkpt><trkpt lat="40.8365933" lon="8.3879283"><ele>7.0</ele><time>2026-04-16T07:27:48.963Z</time></trkpt><trkpt lat="40.8364817" lon="8.387955"><ele>7.25</ele><time>2026-04-16T07:27:50.017Z</time></trkpt><trkpt lat="40.8363667" lon="8.38798"><ele>7.5</ele><time>2026-04-16T07:27:50.956Z</time></trkpt><trkpt lat="40.8362533" lon="8.3880117"><ele>7.75</ele><time>2026-04-16T07:27:51.96Z</time></trkpt><trkpt lat="40.83614" lon="8.388045"><ele>8.0</ele><time>2026-04-16T07:27:52.954Z</time></trkpt><trkpt lat="40.8360217" lon="8.3880683"><ele>9.0</ele><time>2026-04-16T07:27:53.959Z</time></trkpt><trkpt lat="40.8359" lon="8.38809"><ele>10.0</ele><time>2026-04-16T07:27:54.954Z</time></trkpt><trkpt lat="40.83578" lon="8.388115"><ele>11.0</ele><time>2026-04-16T07:27:56.02Z</time></trkpt><trkpt lat="40.8356617" lon="8.3881417"><ele>12.0</ele><time>2026-04-16T07:27:56.956Z</time></trkpt><trkpt lat="40.8355483" lon="8.3881633"><ele>12.0</ele><time>2026-04-16T07:27:57.959Z</time></trkpt><trkpt lat="40.83545" lon="8.38818"><ele>12.0</ele><time>2026-04-16T07:27:58.969Z</time></trkpt><trkpt lat="40.835365" lon="8.388195"><ele>12.0</ele><time>2026-04-16T07:27:59.959Z</time></trkpt><trkpt lat="40.83529" lon="8.3882083"><ele>12.0</ele><time>2026-04-16T07:28:00.962Z</time></trkpt><trkpt lat="40.8352233" lon="8.3882217"><ele>12.0</ele><time>2026-04-16T07:28:02.011Z</time></trkpt><trkpt lat="40.835125" lon="8.3882367"><ele>12.0</ele><time>2026-04-16T07:28:03.959Z</time></trkpt><trkpt lat="40.8350517" lon="8.3882417"><ele>13.0</ele><time>2026-04-16T07:28:05.96Z</time></trkpt><trkpt lat="40.8349883" lon="8.3882333"><ele>14.0</ele><time>2026-04-16T07:28:08.015Z</time></trkpt><trkpt lat="40.8349217" lon="8.3882"><ele>15.0</ele><time>2026-04-16T07:28:09.962Z</time></trkpt><trkpt lat="40.8348517" lon="8.3881317"><ele>16.0</ele><time>2026-04-16T07:28:11.956Z</time></trkpt><trkpt lat="40.8347783" lon="8.3880233"><ele>17.0</ele><time>2026-04-16T07:28:14.011Z</time></trkpt><trkpt lat="40.8347083" lon="8.38789"><ele>17.0</ele><time>2026-04-16T07:28:15.963Z</time></trkpt><trkpt lat="40.83464" lon="8.3877583"><ele>17.0</ele><time>2026-04-16T07:28:17.97Z</time></trkpt><trkpt lat="40.834575" lon="8.3876317"><ele>17.0</ele><time>2026-04-16T07:28:20.011Z</time></trkpt><trkpt lat="40.8345367" lon="8.3875633"><ele>17.0</ele><time>2026-04-16T07:28:20.958Z</time></trkpt><trkpt lat="40.834495" lon="8.38749"><ele>17.0</ele><time>2026-04-16T07:28:21.957Z</time></trkpt><trkpt lat="40.8344483" lon="8.38741"><ele>17.0</ele><time>2026-04-16T07:28:22.963Z</time></trkpt><trkpt lat="40.834395" lon="8.387325"><ele>17.0</ele><time>2026-04-16T07:28:23.957Z</time></trkpt><trkpt lat="40.8343367" lon="8.387235"><ele>17.0</ele><time>2026-04-16T07:28:24.966Z</time></trkpt><trkpt lat="40.8342733" lon="8.3871483"><ele>17.0</ele><time>2026-04-16T07:28:25.999Z</time></trkpt><trkpt lat="40.8342033" lon="8.3870583"><ele>17.0</ele><time>2026-04-16T07:28:26.961Z</time></trkpt><trkpt lat="40.8341267" lon="8.386965"><ele>17.0</ele><time>2026-04-16T07:28:27.96Z</time></trkpt><trkpt lat="40.8340467" lon="8.3868667"><ele>17.0</ele><time>2026-04-16T07:28:28.959Z</time></trkpt><trkpt lat="40.8339633" lon="8.3867717"><ele>17.0</ele><time>2026-04-16T07:28:29.956Z</time></trkpt><trkpt lat="40.8338767" lon="8.3866717"><ele>17.0</ele><time>2026-04-16T07:28:30.962Z</time></trkpt><trkpt lat="40.8337917" lon="8.386565"><ele>17.0</ele><time>2026-04-16T07:28:32.018Z</time></trkpt><trkpt lat="40.8337017" lon="8.3864567"><ele>17.0</ele><time>2026-04-16T07:28:32.959Z</time></trkpt><trkpt lat="40.8336133" lon="8.3863467"><ele>17.0</ele><time>2026-04-16T07:28:33.963Z</time></trkpt><trkpt lat="40.8335233" lon="8.3862367"><ele>17.0</ele><time>2026-04-16T07:28:34.952Z</time></trkpt><trkpt lat="40.83343" lon="8.386125"><ele>17.0</ele><time>2026-04-16T07:28:35.957Z</time></trkpt><trkpt lat="40.8333367" lon="8.386015"><ele>17.0</ele><time>2026-04-16T07:28:36.958Z</time></trkpt><trkpt lat="40.833245" lon="8.3859267"><ele>17.0</ele><time>2026-04-16T07:28:38.01Z</time></trkpt><trkpt lat="40.833165" lon="8.38585"><ele>17.0</ele><time>2026-04-16T07:28:38.951Z</time></trkpt><trkpt lat="40.8330967" lon="8.3857833"><ele>17.0</ele><time>2026-04-16T07:28:39.96Z</time></trkpt><trkpt lat="40.833035" lon="8.3857217"><ele>17.0</ele><time>2026-04-16T07:28:40.958Z</time></trkpt><trkpt lat="40.8329833" lon="8.3856583"><ele>17.0</ele><time>2026-04-16T07:28:41.954Z</time></trkpt><trkpt lat="40.8329383" lon="8.3855967"><ele>17.0</ele><time>2026-04-16T07:28:42.958Z</time></trkpt><trkpt lat="40.83286" lon="8.3854833"><ele>17.0</ele><time>2026-04-16T07:28:44.953Z</time></trkpt><trkpt lat="40.832805" lon="8.3853917"><ele>17.0</ele><time>2026-04-16T07:28:46.961Z</time></trkpt><trkpt lat="40.83275" lon="8.3853317"><ele>17.0</ele><time>2026-04-16T07:28:48.965Z</time></trkpt><trkpt lat="40.8326567" lon="8.3852683"><ele>17.0</ele><time>2026-04-16T07:28:50.953Z</time></trkpt><trkpt lat="40.8326" lon="8.3852283"><ele>17.0</ele><time>2026-04-16T07:28:51.958Z</time></trkpt><trkpt lat="40.8325433" lon="8.3851717"><ele>17.0</ele><time>2026-04-16T07:28:52.961Z</time></trkpt><trkpt lat="40.8324833" lon="8.3851"><ele>17.0</ele><time>2026-04-16T07:28:53.961Z</time></trkpt><trkpt lat="40.8324167" lon="8.385015"><ele>17.0</ele><time>2026-04-16T07:28:54.962Z</time></trkpt><trkpt lat="40.8323417" lon="8.384915"><ele>17.0</ele><time>2026-04-16T07:28:56.021Z</time></trkpt><trkpt lat="40.8322633" lon="8.3848067"><ele>17.0</ele><time>2026-04-16T07:28:56.955Z</time></trkpt><trkpt lat="40.8321817" lon="8.3846867"><ele>17.0</ele><time>2026-04-16T07:28:57.961Z</time></trkpt><trkpt lat="40.83209" lon="8.3845517"><ele>17.0</ele><time>2026-04-16T07:28:58.966Z</time></trkpt><trkpt lat="40.831995" lon="8.384415"><ele>17.0</ele><time>2026-04-16T07:28:59.961Z</time></trkpt><trkpt lat="40.8318933" lon="8.3842767"><ele>17.0</ele><time>2026-04-16T07:29:00.961Z</time></trkpt><trkpt lat="40.8317883" lon="8.384135"><ele>17.333333333333336</ele><time>2026-04-16T07:29:02.008Z</time></trkpt><trkpt lat="40.8316817" lon="8.3839867"><ele>17.666666666666668</ele><time>2026-04-16T07:29:02.95Z</time></trkpt><trkpt lat="40.8315683" lon="8.3838333"><ele>18.0</ele><time>2026-04-16T07:29:03.958Z</time></trkpt><trkpt lat="40.8314567" lon="8.3836667"><ele>19.0</ele><time>2026-04-16T07:29:04.952Z</time></trkpt><trkpt lat="40.831345" lon="8.3834967"><ele>20.0</ele><time>2026-04-16T07:29:05.961Z</time></trkpt><trkpt lat="40.8312417" lon="8.383325"><ele>21.0</ele><time>2026-04-16T07:29:06.956Z</time></trkpt><trkpt lat="40.8311467" lon="8.383155"><ele>21.666666666666668</ele><time>2026-04-16T07:29:08.009Z</time></trkpt><trkpt lat="40.8310533" lon="8.382985"><ele>22.333333333333336</ele><time>2026-04-16T07:29:08.956Z</time></trkpt><trkpt lat="40.8309667" lon="8.3828133"><ele>23.0</ele><time>2026-04-16T07:29:09.955Z</time></trkpt><trkpt lat="40.8308817" lon="8.3826433"><ele>23.333333333333336</ele><time>2026-04-16T07:29:10.959Z</time></trkpt><trkpt lat="40.8308017" lon="8.3824717"><ele>23.666666666666668</ele><time>2026-04-16T07:29:11.962Z</time></trkpt><trkpt lat="40.8307217" lon="8.3822983"><ele>24.0</ele><time>2026-04-16T07:29:12.957Z</time></trkpt><trkpt lat="40.8306467" lon="8.3821283"><ele>24.0</ele><time>2026-04-16T07:29:14.014Z</time></trkpt><trkpt lat="40.8305783" lon="8.3819633"><ele>24.0</ele><time>2026-04-16T07:29:14.956Z</time></trkpt><trkpt lat="40.8305167" lon="8.3818117"><ele>24.0</ele><time>2026-04-16T07:29:15.962Z</time></trkpt><trkpt lat="40.8304667" lon="8.381675"><ele>24.0</ele><time>2026-04-16T07:29:16.955Z</time></trkpt><trkpt lat="40.8304133" lon="8.3815467"><ele>24.0</ele><time>2026-04-16T07:29:17.96Z</time></trkpt><trkpt lat="40.8303467" lon="8.3814217"><ele>24.0</ele><time>2026-04-16T07:29:18.962Z</time></trkpt><trkpt lat="40.8302617" lon="8.3813017"><ele>24.0</ele><time>2026-04-16T07:29:20.013Z</time></trkpt><trkpt lat="40.830165" lon="8.38118"><ele>24.0</ele><time>2026-04-16T07:29:20.956Z</time></trkpt><trkpt lat="40.83006" lon="8.3810533"><ele>23.666666666666668</ele><time>2026-04-16T07:29:21.962Z</time></trkpt><trkpt lat="40.8299333" lon="8.3809083"><ele>23.333333333333336</ele><time>2026-04-16T07:29:22.96Z</time></trkpt><trkpt lat="40.8297983" lon="8.38075"><ele>23.0</ele><time>2026-04-16T07:29:23.959Z</time></trkpt><trkpt lat="40.8296533" lon="8.3805817"><ele>23.333333333333336</ele><time>2026-04-16T07:29:24.964Z</time></trkpt><trkpt lat="40.8295167" lon="8.3804167"><ele>23.666666666666668</ele><time>2026-04-16T07:29:26.021Z</time></trkpt><trkpt lat="40.8293883" lon="8.3802583"><ele>24.0</ele><time>2026-04-16T07:29:26.964Z</time></trkpt><trkpt lat="40.8292717" lon="8.3801133"><ele>24.333333333333336</ele><time>2026-04-16T07:29:27.965Z</time></trkpt><trkpt lat="40.82916" lon="8.379975"><ele>24.666666666666668</ele><time>2026-04-16T07:29:28.961Z</time></trkpt><trkpt lat="40.82905" lon="8.37984"><ele>25.0</ele><time>2026-04-16T07:29:29.965Z</time></trkpt><trkpt lat="40.8289383" lon="8.3797033"><ele>25.666666666666668</ele><time>2026-04-16T07:29:30.956Z</time></trkpt><trkpt lat="40.828825" lon="8.379565"><ele>26.333333333333336</ele><time>2026-04-16T07:29:32.019Z</time></trkpt><trkpt lat="40.8287117" lon="8.379425"><ele>27.0</ele><time>2026-04-16T07:29:32.955Z</time></trkpt><trkpt lat="40.8286" lon="8.3792767"><ele>27.0</ele><time>2026-04-16T07:29:33.951Z</time></trkpt><trkpt lat="40.828495" lon="8.3791117"><ele>27.0</ele><time>2026-04-16T07:29:34.956Z</time></trkpt><trkpt lat="40.8283883" lon="8.3789333"><ele>27.0</ele><time>2026-04-16T07:29:35.952Z</time></trkpt><trkpt lat="40.8282883" lon="8.378745"><ele>26.333333333333336</ele><time>2026-04-16T07:29:36.961Z</time></trkpt><trkpt lat="40.8281883" lon="8.3785583"><ele>25.666666666666668</ele><time>2026-04-16T07:29:38.014Z</time></trkpt><trkpt lat="40.8280917" lon="8.37838"><ele>25.0</ele><time>2026-04-16T07:29:38.955Z</time></trkpt><trkpt lat="40.8280017" lon="8.3782167"><ele>25.0</ele><time>2026-04-16T07:29:39.963Z</time></trkpt><trkpt lat="40.8279183" lon="8.378065"><ele>25.0</ele><time>2026-04-16T07:29:40.96Z</time></trkpt><trkpt lat="40.8278367" lon="8.3779167"><ele>25.0</ele><time>2026-04-16T07:29:41.959Z</time></trkpt><trkpt lat="40.8277517" lon="8.37777"><ele>25.0</ele><time>2026-04-16T07:29:42.964Z</time></trkpt><trkpt lat="40.8276667" lon="8.37763"><ele>25.0</ele><time>2026-04-16T07:29:44.008Z</time></trkpt><trkpt lat="40.8275833" lon="8.3774917"><ele>25.0</ele><time>2026-04-16T07:29:44.951Z</time></trkpt><trkpt lat="40.8275" lon="8.377355"><ele>25.0</ele><time>2026-04-16T07:29:45.96Z</time></trkpt><trkpt lat="40.8274183" lon="8.3772283"><ele>25.0</ele><time>2026-04-16T07:29:46.955Z</time></trkpt><trkpt lat="40.827335" lon="8.3771167"><ele>25.0</ele><time>2026-04-16T07:29:47.957Z</time></trkpt><trkpt lat="40.82725" lon="8.377015"><ele>25.0</ele><time>2026-04-16T07:29:48.958Z</time></trkpt><trkpt lat="40.8271583" lon="8.3769233"><ele>25.0</ele><time>2026-04-16T07:29:50.012Z</time></trkpt><trkpt lat="40.8270583" lon="8.3768433"><ele>25.0</ele><time>2026-04-16T07:29:50.959Z</time></trkpt><trkpt lat="40.8269533" lon="8.3767733"><ele>25.0</ele><time>2026-04-16T07:29:51.96Z</time></trkpt><trkpt lat="40.8268433" lon="8.37671"><ele>25.0</ele><time>2026-04-16T07:29:52.954Z</time></trkpt><trkpt lat="40.8267333" lon="8.3766483"><ele>25.0</ele><time>2026-04-16T07:29:53.953Z</time></trkpt><trkpt lat="40.8266217" lon="8.3765833"><ele>25.0</ele><time>2026-04-16T07:29:54.951Z</time></trkpt><trkpt lat="40.8265133" lon="8.376515"><ele>24.25</ele><time>2026-04-16T07:29:56.023Z</time></trkpt><trkpt lat="40.8264" lon="8.37644"><ele>23.5</ele><time>2026-04-16T07:29:56.955Z</time></trkpt><trkpt lat="40.8262883" lon="8.37637"><ele>22.75</ele><time>2026-04-16T07:29:57.961Z</time></trkpt><trkpt lat="40.82617" lon="8.3763117"><ele>22.0</ele><time>2026-04-16T07:29:58.967Z</time></trkpt><trkpt lat="40.8260467" lon="8.3762683"><ele>21.5</ele><time>2026-04-16T07:29:59.959Z</time></trkpt><trkpt lat="40.82591" lon="8.3762383"><ele>21.0</ele><time>2026-04-16T07:30:00.952Z</time></trkpt><trkpt lat="40.825765" lon="8.3762233"><ele>20.5</ele><time>2026-04-16T07:30:02.015Z</time></trkpt><trkpt lat="40.8256083" lon="8.3762217"><ele>20.0</ele><time>2026-04-16T07:30:02.959Z</time></trkpt><trkpt lat="40.8254467" lon="8.3762217"><ele>20.0</ele><time>2026-04-16T07:30:03.958Z</time></trkpt><trkpt lat="40.8252783" lon="8.3762217"><ele>20.0</ele><time>2026-04-16T07:30:04.961Z</time></trkpt><trkpt lat="40.8250967" lon="8.37622"><ele>20.0</ele><time>2026-04-16T07:30:05.953Z</time></trkpt><trkpt lat="40.8249133" lon="8.3762167"><ele>20.333333333333336</ele><time>2026-04-16T07:30:06.956Z</time></trkpt><trkpt lat="40.8247333" lon="8.3762167"><ele>20.666666666666668</ele><time>2026-04-16T07:30:07.997Z</time></trkpt><trkpt lat="40.8245633" lon="8.3762183"><ele>21.0</ele><time>2026-04-16T07:30:08.953Z</time></trkpt><trkpt lat="40.8244083" lon="8.376215"><ele>20.75</ele><time>2026-04-16T07:30:09.955Z</time></trkpt><trkpt lat="40.8242633" lon="8.3762117"><ele>20.5</ele><time>2026-04-16T07:30:10.959Z</time></trkpt><trkpt lat="40.8241333" lon="8.3762067"><ele>20.25</ele><time>2026-04-16T07:30:11.959Z</time></trkpt><trkpt lat="40.824005" lon="8.3762017"><ele>20.0</ele><time>2026-04-16T07:30:12.96Z</time></trkpt><trkpt lat="40.823885" lon="8.3761983"><ele>20.0</ele><time>2026-04-16T07:30:14.006Z</time></trkpt><trkpt lat="40.8237783" lon="8.3761967"><ele>20.0</ele><time>2026-04-16T07:30:14.953Z</time></trkpt><trkpt lat="40.8236817" lon="8.3761933"><ele>20.0</ele><time>2026-04-16T07:30:15.958Z</time></trkpt><trkpt lat="40.82358" lon="8.37619"><ele>20.0</ele><time>2026-04-16T07:30:16.965Z</time></trkpt><trkpt lat="40.8234683" lon="8.3761883"><ele>20.0</ele><time>2026-04-16T07:30:17.951Z</time></trkpt><trkpt lat="40.8233417" lon="8.3761917"><ele>20.25</ele><time>2026-04-16T07:30:18.96Z</time></trkpt><trkpt lat="40.8232017" lon="8.3761917"><ele>20.5</ele><time>2026-04-16T07:30:20.007Z</time></trkpt><trkpt lat="40.8230517" lon="8.3761917"><ele>20.75</ele><time>2026-04-16T07:30:20.955Z</time></trkpt><trkpt lat="40.822895" lon="8.37619"><ele>21.0</ele><time>2026-04-16T07:30:21.961Z</time></trkpt><trkpt lat="40.82273" lon="8.376185"><ele>21.666666666666668</ele><time>2026-04-16T07:30:22.961Z</time></trkpt><trkpt lat="40.8225583" lon="8.37618"><ele>22.333333333333336</ele><time>2026-04-16T07:30:23.966Z</time></trkpt><trkpt lat="40.8223767" lon="8.376175"><ele>23.0</ele><time>2026-04-16T07:30:24.951Z</time></trkpt><trkpt lat="40.82218" lon="8.3761733"><ele>23.0</ele><time>2026-04-16T07:30:26.018Z</time></trkpt><trkpt lat="40.8219667" lon="8.3761683"><ele>23.0</ele><time>2026-04-16T07:30:26.952Z</time></trkpt><trkpt lat="40.82175" lon="8.3761633"><ele>23.0</ele><time>2026-04-16T07:30:27.948Z</time></trkpt><trkpt lat="40.8215317" lon="8.3761567"><ele>22.333333333333336</ele><time>2026-04-16T07:30:28.953Z</time></trkpt><trkpt lat="40.82132" lon="8.3761517"><ele>21.666666666666668</ele><time>2026-04-16T07:30:29.951Z</time></trkpt><trkpt lat="40.8211117" lon="8.3761467"><ele>21.0</ele><time>2026-04-16T07:30:30.957Z</time></trkpt><trkpt lat="40.8208983" lon="8.3761383"><ele>21.0</ele><time>2026-04-16T07:30:32.016Z</time></trkpt><trkpt lat="40.8206883" lon="8.3761333"><ele>21.0</ele><time>2026-04-16T07:30:32.955Z</time></trkpt><trkpt lat="40.8204833" lon="8.3761267"><ele>21.0</ele><time>2026-04-16T07:30:33.96Z</time></trkpt><trkpt lat="40.8202883" lon="8.3761217"><ele>22.0</ele><time>2026-04-16T07:30:34.959Z</time></trkpt><trkpt lat="40.8200917" lon="8.3761167"><ele>23.0</ele><time>2026-04-16T07:30:35.955Z</time></trkpt><trkpt lat="40.8198983" lon="8.37611"><ele>24.0</ele><time>2026-04-16T07:30:36.97Z</time></trkpt><trkpt lat="40.8197033" lon="8.3761033"><ele>24.0</ele><time>2026-04-16T07:30:38.005Z</time></trkpt><trkpt lat="40.8195117" lon="8.3760983"><ele>24.0</ele><time>2026-04-16T07:30:38.956Z</time></trkpt><trkpt lat="40.8193183" lon="8.3760933"><ele>24.0</ele><time>2026-04-16T07:30:39.961Z</time></trkpt><trkpt lat="40.8191267" lon="8.37609"><ele>23.333333333333332</ele><time>2026-04-16T07:30:40.961Z</time></trkpt><trkpt lat="40.8189367" lon="8.376085"><ele>22.666666666666664</ele><time>2026-04-16T07:30:41.959Z</time></trkpt><trkpt lat="40.8187433" lon="8.3760833"><ele>22.0</ele><time>2026-04-16T07:30:42.961Z</time></trkpt><trkpt lat="40.8185533" lon="8.3760783"><ele>21.666666666666664</ele><time>2026-04-16T07:30:44.005Z</time></trkpt><trkpt lat="40.8183633" lon="8.376075"><ele>21.333333333333332</ele><time>2026-04-16T07:30:44.961Z</time></trkpt><trkpt lat="40.8181783" lon="8.376065"><ele>21.0</ele><time>2026-04-16T07:30:45.963Z</time></trkpt><trkpt lat="40.8179933" lon="8.3760583"><ele>21.0</ele><time>2026-04-16T07:30:46.96Z</time></trkpt><trkpt lat="40.8178133" lon="8.37605"><ele>21.0</ele><time>2026-04-16T07:30:47.963Z</time></trkpt><trkpt lat="40.81763" lon="8.3760433"><ele>21.0</ele><time>2026-04-16T07:30:48.951Z</time></trkpt><trkpt lat="40.8174467" lon="8.3760383"><ele>21.333333333333332</ele><time>2026-04-16T07:30:49.998Z</time></trkpt><trkpt lat="40.8172667" lon="8.376035"><ele>21.666666666666664</ele><time>2026-04-16T07:30:50.972Z</time></trkpt><trkpt lat="40.817085" lon="8.3760333"><ele>22.0</ele><time>2026-04-16T07:30:51.949Z</time></trkpt><trkpt lat="40.8169067" lon="8.37603"><ele>22.666666666666664</ele><time>2026-04-16T07:30:52.953Z</time></trkpt><trkpt lat="40.8167283" lon="8.37603"><ele>23.333333333333332</ele><time>2026-04-16T07:30:53.956Z</time></trkpt><trkpt lat="40.8165483" lon="8.3760283"><ele>24.0</ele><time>2026-04-16T07:30:54.953Z</time></trkpt><trkpt lat="40.8163733" lon="8.3760283"><ele>24.0</ele><time>2026-04-16T07:30:56.022Z</time></trkpt><trkpt lat="40.8162067" lon="8.376025"><ele>24.0</ele><time>2026-04-16T07:30:56.955Z</time></trkpt><trkpt lat="40.81604" lon="8.3760233"><ele>24.0</ele><time>2026-04-16T07:30:57.961Z</time></trkpt><trkpt lat="40.8158717" lon="8.376025"><ele>24.333333333333336</ele><time>2026-04-16T07:30:58.965Z</time></trkpt><trkpt lat="40.8157033" lon="8.3760267"><ele>24.666666666666668</ele><time>2026-04-16T07:30:59.958Z</time></trkpt><trkpt lat="40.8155483" lon="8.3760267"><ele>25.0</ele><time>2026-04-16T07:31:00.962Z</time></trkpt><trkpt lat="40.81541" lon="8.3760217"><ele>25.0</ele><time>2026-04-16T07:31:02.015Z</time></trkpt><trkpt lat="40.8152867" lon="8.3760133"><ele>25.0</ele><time>2026-04-16T07:31:02.956Z</time></trkpt><trkpt lat="40.81518" lon="8.3759917"><ele>25.0</ele><time>2026-04-16T07:31:03.962Z</time></trkpt><trkpt lat="40.8150967" lon="8.3759533"><ele>25.0</ele><time>2026-04-16T07:31:04.959Z</time></trkpt><trkpt lat="40.8150283" lon="8.3759033"><ele>25.0</ele><time>2026-04-16T07:31:05.952Z</time></trkpt><trkpt lat="40.8149767" lon="8.375845"><ele>24.8</ele><time>2026-04-16T07:31:06.958Z</time></trkpt><trkpt lat="40.8149333" lon="8.3757833"><ele>24.6</ele><time>2026-04-16T07:31:07.999Z</time></trkpt><trkpt lat="40.8148783" lon="8.3756433"><ele>24.4</ele><time>2026-04-16T07:31:09.954Z</time></trkpt><trkpt lat="40.8148517" lon="8.37549"><ele>24.2</ele><time>2026-04-16T07:31:11.952Z</time></trkpt><trkpt lat="40.814845" lon="8.3753967"><ele>24.0</ele><time>2026-04-16T07:31:12.958Z</time></trkpt><trkpt lat="40.8148383" lon="8.3752917"><ele>24.0</ele><time>2026-04-16T07:31:14.012Z</time></trkpt><trkpt lat="40.8148317" lon="8.3751683"><ele>24.0</ele><time>2026-04-16T07:31:14.957Z</time></trkpt><trkpt lat="40.81483" lon="8.3750367"><ele>24.0</ele><time>2026-04-16T07:31:15.959Z</time></trkpt><trkpt lat="40.8148283" lon="8.3749067"><ele>24.0</ele><time>2026-04-16T07:31:16.959Z</time></trkpt><trkpt lat="40.814825" lon="8.3747717"><ele>24.0</ele><time>2026-04-16T07:31:17.959Z</time></trkpt><trkpt lat="40.8148217" lon="8.3746217"><ele>24.0</ele><time>2026-04-16T07:31:18.96Z</time></trkpt><trkpt lat="40.8148183" lon="8.374455"><ele>24.0</ele><time>2026-04-16T07:31:20.006Z</time></trkpt><trkpt lat="40.814815" lon="8.3742717"><ele>24.0</ele><time>2026-04-16T07:31:20.952Z</time></trkpt><trkpt lat="40.8148083" lon="8.374075"><ele>24.0</ele><time>2026-04-16T07:31:21.96Z</time></trkpt><trkpt lat="40.8148" lon="8.373865"><ele>23.666666666666668</ele><time>2026-04-16T07:31:22.957Z</time></trkpt><trkpt lat="40.8147933" lon="8.3736367"><ele>23.333333333333336</ele><time>2026-04-16T07:31:23.96Z</time></trkpt><trkpt lat="40.8147917" lon="8.373395"><ele>23.0</ele><time>2026-04-16T07:31:24.955Z</time></trkpt><trkpt lat="40.8147967" lon="8.373135"><ele>24.0</ele><time>2026-04-16T07:31:26.023Z</time></trkpt><trkpt lat="40.8148033" lon="8.3728583"><ele>25.0</ele><time>2026-04-16T07:31:26.951Z</time></trkpt><trkpt lat="40.8148067" lon="8.3725767"><ele>26.0</ele><time>2026-04-16T07:31:27.955Z</time></trkpt><trkpt lat="40.8148117" lon="8.37229"><ele>25.666666666666664</ele><time>2026-04-16T07:31:28.957Z</time></trkpt><trkpt lat="40.8148183" lon="8.3719983"><ele>25.333333333333336</ele><time>2026-04-16T07:31:29.956Z</time></trkpt><trkpt lat="40.814825" lon="8.3717083"><ele>25.0</ele><time>2026-04-16T07:31:30.962Z</time></trkpt><trkpt lat="40.8148283" lon="8.3714167"><ele>24.666666666666668</ele><time>2026-04-16T07:31:32.015Z</time></trkpt><trkpt lat="40.81483" lon="8.3711267"><ele>24.333333333333336</ele><time>2026-04-16T07:31:32.951Z</time></trkpt><trkpt lat="40.81483" lon="8.370835"><ele>24.0</ele><time>2026-04-16T07:31:33.965Z</time></trkpt><trkpt lat="40.814835" lon="8.3705467"><ele>23.0</ele><time>2026-04-16T07:31:34.956Z</time></trkpt><trkpt lat="40.8148383" lon="8.3702617"><ele>22.0</ele><time>2026-04-16T07:31:35.959Z</time></trkpt><trkpt lat="40.8148417" lon="8.3699817"><ele>21.0</ele><time>2026-04-16T07:31:36.968Z</time></trkpt><trkpt lat="40.8148433" lon="8.3697083"><ele>20.333333333333332</ele><time>2026-04-16T07:31:38.011Z</time></trkpt><trkpt lat="40.8148467" lon="8.3694367"><ele>19.666666666666664</ele><time>2026-04-16T07:31:38.959Z</time></trkpt><trkpt lat="40.81485" lon="8.36916"><ele>19.0</ele><time>2026-04-16T07:31:39.961Z</time></trkpt><trkpt lat="40.8148517" lon="8.3688783"><ele>17.666666666666664</ele><time>2026-04-16T07:31:40.96Z</time></trkpt><trkpt lat="40.8148533" lon="8.3685917"><ele>16.333333333333332</ele><time>2026-04-16T07:31:41.952Z</time></trkpt><trkpt lat="40.814855" lon="8.3683033"><ele>15.0</ele><time>2026-04-16T07:31:42.958Z</time></trkpt><trkpt lat="40.814855" lon="8.3680067"><ele>14.5</ele><time>2026-04-16T07:31:44.004Z</time></trkpt><trkpt lat="40.814855" lon="8.367705"><ele>14.0</ele><time>2026-04-16T07:31:44.955Z</time></trkpt><trkpt lat="40.8148617" lon="8.3674"><ele>15.0</ele><time>2026-04-16T07:31:45.958Z</time></trkpt><trkpt lat="40.814865" lon="8.3670933"><ele>16.0</ele><time>2026-04-16T07:31:46.956Z</time></trkpt><trkpt lat="40.8148667" lon="8.3667833"><ele>16.0</ele><time>2026-04-16T07:31:47.957Z</time></trkpt><trkpt lat="40.81487" lon="8.3664667"><ele>16.0</ele><time>2026-04-16T07:31:48.96Z</time></trkpt><trkpt lat="40.8148717" lon="8.3661417"><ele>16.0</ele><time>2026-04-16T07:31:50.006Z</time></trkpt><trkpt lat="40.814875" lon="8.3658133"><ele>16.0</ele><time>2026-04-16T07:31:50.958Z</time></trkpt><trkpt lat="40.81488" lon="8.3654817"><ele>17.0</ele><time>2026-04-16T07:31:51.962Z</time></trkpt><trkpt lat="40.814885" lon="8.365145"><ele>18.0</ele><time>2026-04-16T07:31:52.955Z</time></trkpt><trkpt lat="40.81489" lon="8.3648067"><ele>19.5</ele><time>2026-04-16T07:31:53.955Z</time></trkpt><trkpt lat="40.8148917" lon="8.36447"><ele>21.0</ele><time>2026-04-16T07:31:54.955Z</time></trkpt><trkpt lat="40.8148983" lon="8.3641367"><ele>21.0</ele><time>2026-04-16T07:31:56.018Z</time></trkpt><trkpt lat="40.814905" lon="8.3638117"><ele>21.0</ele><time>2026-04-16T07:31:56.953Z</time></trkpt><trkpt lat="40.8149117" lon="8.3634867"><ele>21.0</ele><time>2026-04-16T07:31:57.961Z</time></trkpt><trkpt lat="40.8149183" lon="8.3631783"><ele>21.0</ele><time>2026-04-16T07:31:58.954Z</time></trkpt><trkpt lat="40.814925" lon="8.3628967"><ele>21.0</ele><time>2026-04-16T07:31:59.95Z</time></trkpt><trkpt lat="40.8149283" lon="8.362635"><ele>21.666666666666668</ele><time>2026-04-16T07:32:00.956Z</time></trkpt><trkpt lat="40.8149317" lon="8.3623933"><ele>22.333333333333336</ele><time>2026-04-16T07:32:02.03Z</time></trkpt><trkpt lat="40.8149217" lon="8.36217"><ele>23.0</ele><time>2026-04-16T07:32:02.954Z</time></trkpt><trkpt lat="40.8148967" lon="8.361955"><ele>23.25</ele><time>2026-04-16T07:32:03.962Z</time></trkpt><trkpt lat="40.8148567" lon="8.3617483"><ele>23.5</ele><time>2026-04-16T07:32:04.953Z</time></trkpt><trkpt lat="40.8148183" lon="8.3615683"><ele>23.75</ele><time>2026-04-16T07:32:05.963Z</time></trkpt><trkpt lat="40.814785" lon="8.361425"><ele>24.0</ele><time>2026-04-16T07:32:06.958Z</time></trkpt><trkpt lat="40.8147583" lon="8.3613117"><ele>24.0</ele><time>2026-04-16T07:32:08.006Z</time></trkpt><trkpt lat="40.81473" lon="8.3612133"><ele>24.0</ele><time>2026-04-16T07:32:08.952Z</time></trkpt><trkpt lat="40.8147" lon="8.3611233"><ele>24.0</ele><time>2026-04-16T07:32:09.955Z</time></trkpt><trkpt lat="40.8146717" lon="8.361035"><ele>24.0</ele><time>2026-04-16T07:32:10.948Z</time></trkpt><trkpt lat="40.8146433" lon="8.3609367"><ele>24.0</ele><time>2026-04-16T07:32:11.959Z</time></trkpt><trkpt lat="40.814615" lon="8.36082"><ele>24.0</ele><time>2026-04-16T07:32:12.959Z</time></trkpt><trkpt lat="40.8145933" lon="8.3606933"><ele>24.0</ele><time>2026-04-16T07:32:13.996Z</time></trkpt><trkpt lat="40.8145833" lon="8.3605717"><ele>24.0</ele><time>2026-04-16T07:32:14.95Z</time></trkpt><trkpt lat="40.814595" lon="8.36046"><ele>24.0</ele><time>2026-04-16T07:32:15.957Z</time></trkpt><trkpt lat="40.81462" lon="8.3603633"><ele>24.0</ele><time>2026-04-16T07:32:16.953Z</time></trkpt><trkpt lat="40.814675" lon="8.3602833"><ele>24.0</ele><time>2026-04-16T07:32:17.955Z</time></trkpt><trkpt lat="40.8147467" lon="8.3602033"><ele>24.0</ele><time>2026-04-16T07:32:18.955Z</time></trkpt><trkpt lat="40.8148217" lon="8.3601083"><ele>23.6</ele><time>2026-04-16T07:32:20.004Z</time></trkpt><trkpt lat="40.8148833" lon="8.36"><ele>23.2</ele><time>2026-04-16T07:32:20.956Z</time></trkpt><trkpt lat="40.8149117" lon="8.3598717"><ele>22.8</ele><time>2026-04-16T07:32:21.957Z</time></trkpt><trkpt lat="40.8149067" lon="8.3597383"><ele>22.400000000000002</ele><time>2026-04-16T07:32:22.956Z</time></trkpt><trkpt lat="40.81485" lon="8.3596133"><ele>22.0</ele><time>2026-04-16T07:32:23.956Z</time></trkpt><trkpt lat="40.8147867" lon="8.3595083"><ele>22.0</ele><time>2026-04-16T07:32:24.953Z</time></trkpt><trkpt lat="40.8146733" lon="8.3594533"><ele>22.0</ele><time>2026-04-16T07:32:26.023Z</time></trkpt><trkpt lat="40.8145483" lon="8.3594233"><ele>22.0</ele><time>2026-04-16T07:32:26.958Z</time></trkpt><trkpt lat="40.8144167" lon="8.359415"><ele>22.0</ele><time>2026-04-16T07:32:27.96Z</time></trkpt><trkpt lat="40.8142983" lon="8.359425"><ele>22.8</ele><time>2026-04-16T07:32:28.956Z</time></trkpt><trkpt lat="40.8141967" lon="8.3594683"><ele>23.6</ele><time>2026-04-16T07:32:29.959Z</time></trkpt><trkpt lat="40.8141133" lon="8.35954"><ele>24.400000000000002</ele><time>2026-04-16T07:32:30.959Z</time></trkpt><trkpt lat="40.8140733" lon="8.3596533"><ele>25.200000000000003</ele><time>2026-04-16T07:32:32.022Z</time></trkpt><trkpt lat="40.814045" lon="8.35978"><ele>26.0</ele><time>2026-04-16T07:32:32.954Z</time></trkpt><trkpt lat="40.8140617" lon="8.3599183"><ele>26.0</ele><time>2026-04-16T07:32:33.957Z</time></trkpt><trkpt lat="40.8141067" lon="8.36005"><ele>26.0</ele><time>2026-04-16T07:32:34.958Z</time></trkpt><trkpt lat="40.8141833" lon="8.3601717"><ele>26.0</ele><time>2026-04-16T07:32:35.959Z</time></trkpt><trkpt lat="40.8142867" lon="8.3602933"><ele>26.0</ele><time>2026-04-16T07:32:36.954Z</time></trkpt><trkpt lat="40.8143817" lon="8.36042"><ele>25.5</ele><time>2026-04-16T07:32:37.999Z</time></trkpt><trkpt lat="40.8144583" lon="8.3605717"><ele>25.0</ele><time>2026-04-16T07:32:38.95Z</time></trkpt><trkpt lat="40.814515" lon="8.3607383"><ele>24.5</ele><time>2026-04-16T07:32:39.956Z</time></trkpt><trkpt lat="40.8145567" lon="8.3608983"><ele>24.0</ele><time>2026-04-16T07:32:40.96Z</time></trkpt><trkpt lat="40.8145967" lon="8.3610383"><ele>24.0</ele><time>2026-04-16T07:32:41.959Z</time></trkpt><trkpt lat="40.8146267" lon="8.36115"><ele>24.0</ele><time>2026-04-16T07:32:42.967Z</time></trkpt><trkpt lat="40.81465" lon="8.3612517"><ele>24.0</ele><time>2026-04-16T07:32:44.007Z</time></trkpt><trkpt lat="40.81467" lon="8.3613433"><ele>24.0</ele><time>2026-04-16T07:32:44.958Z</time></trkpt><trkpt lat="40.8146883" lon="8.3614233"><ele>24.0</ele><time>2026-04-16T07:32:45.963Z</time></trkpt><trkpt lat="40.81472" lon="8.3615367"><ele>24.0</ele><time>2026-04-16T07:32:47.963Z</time></trkpt><trkpt lat="40.8147383" lon="8.3616333"><ele>24.0</ele><time>2026-04-16T07:32:50.008Z</time></trkpt><trkpt lat="40.8148183" lon="8.361635"><ele>24.0</ele><time>2026-04-16T07:33:24.959Z</time></trkpt><trkpt lat="40.8148133" lon="8.3615417"><ele>24.0</ele><time>2026-04-16T07:33:26.952Z</time></trkpt><trkpt lat="40.81478" lon="8.3614367"><ele>24.0</ele><time>2026-04-16T07:34:08.001Z</time></trkpt><trkpt lat="40.814745" lon="8.3613017"><ele>24.0</ele><time>2026-04-16T07:34:09.952Z</time></trkpt><trkpt lat="40.8147167" lon="8.3612117"><ele>24.0</ele><time>2026-04-16T07:34:10.953Z</time></trkpt><trkpt lat="40.8146533" lon="8.3609883"><ele>24.0</ele><time>2026-04-16T07:34:12.958Z</time></trkpt><trkpt lat="40.814605" lon="8.3607483"><ele>24.0</ele><time>2026-04-16T07:34:14.95Z</time></trkpt><trkpt lat="40.8146083" lon="8.3605017"><ele>24.0</ele><time>2026-04-16T07:34:16.954Z</time></trkpt><trkpt lat="40.814655" lon="8.360405"><ele>23.333333333333332</ele><time>2026-04-16T07:34:17.955Z</time></trkpt><trkpt lat="40.8147917" lon="8.3602083"><ele>22.666666666666664</ele><time>2026-04-16T07:34:20.005Z</time></trkpt><trkpt lat="40.8149283" lon="8.3599667"><ele>22.0</ele><time>2026-04-16T07:34:21.953Z</time></trkpt><trkpt lat="40.8149967" lon="8.359655"><ele>22.0</ele><time>2026-04-16T07:34:23.956Z</time></trkpt><trkpt lat="40.815005" lon="8.35948"><ele>22.0</ele><time>2026-04-16T07:34:24.955Z</time></trkpt><trkpt lat="40.8150083" lon="8.3591033"><ele>22.0</ele><time>2026-04-16T07:34:26.954Z</time></trkpt><trkpt lat="40.8150083" lon="8.3587067"><ele>23.5</ele><time>2026-04-16T07:34:28.954Z</time></trkpt><trkpt lat="40.8150117" lon="8.3585067"><ele>25.0</ele><time>2026-04-16T07:34:29.958Z</time></trkpt><trkpt lat="40.81502" lon="8.35808"><ele>26.5</ele><time>2026-04-16T07:34:32.015Z</time></trkpt><trkpt lat="40.8150267" lon="8.3576383"><ele>28.0</ele><time>2026-04-16T07:34:33.948Z</time></trkpt><trkpt lat="40.815035" lon="8.3571783"><ele>28.0</ele><time>2026-04-16T07:34:35.955Z</time></trkpt><trkpt lat="40.8150383" lon="8.356945"><ele>28.0</ele><time>2026-04-16T07:34:36.959Z</time></trkpt><trkpt lat="40.8150417" lon="8.3567117"><ele>28.0</ele><time>2026-04-16T07:34:37.998Z</time></trkpt><trkpt lat="40.815045" lon="8.356245"><ele>28.0</ele><time>2026-04-16T07:34:39.957Z</time></trkpt><trkpt lat="40.8150467" lon="8.3560067"><ele>28.0</ele><time>2026-04-16T07:34:40.952Z</time></trkpt><trkpt lat="40.81505" lon="8.3557683"><ele>28.0</ele><time>2026-04-16T07:34:41.955Z</time></trkpt><trkpt lat="40.8150583" lon="8.3552983"><ele>29.0</ele><time>2026-04-16T07:34:44Z</time></trkpt><trkpt lat="40.8150617" lon="8.3550617"><ele>30.0</ele><time>2026-04-16T07:34:44.952Z</time></trkpt><trkpt lat="40.8150633" lon="8.3548267"><ele>31.0</ele><time>2026-04-16T07:34:45.953Z</time></trkpt><trkpt lat="40.815065" lon="8.3545883"><ele>32.5</ele><time>2026-04-16T07:34:46.952Z</time></trkpt><trkpt lat="40.815065" lon="8.3541117"><ele>34.0</ele><time>2026-04-16T07:34:48.956Z</time></trkpt><trkpt lat="40.8150683" lon="8.3536467"><ele>34.0</ele><time>2026-04-16T07:34:50.97Z</time></trkpt><trkpt lat="40.81508" lon="8.3532017"><ele>34.0</ele><time>2026-04-16T07:34:52.955Z</time></trkpt><trkpt lat="40.815085" lon="8.3529817"><ele>34.0</ele><time>2026-04-16T07:34:53.962Z</time></trkpt><trkpt lat="40.815085" lon="8.3527583"><ele>34.0</ele><time>2026-04-16T07:34:54.952Z</time></trkpt><trkpt lat="40.8150867" lon="8.3525383"><ele>34.0</ele><time>2026-04-16T07:34:56.065Z</time></trkpt><trkpt lat="40.8150867" lon="8.3523183"><ele>34.0</ele><time>2026-04-16T07:34:56.967Z</time></trkpt><trkpt lat="40.8150917" lon="8.352095"><ele>34.0</ele><time>2026-04-16T07:34:57.948Z</time></trkpt><trkpt lat="40.8150933" lon="8.35187"><ele>34.0</ele><time>2026-04-16T07:34:58.957Z</time></trkpt><trkpt lat="40.8150983" lon="8.3514117"><ele>33.66666666666667</ele><time>2026-04-16T07:35:00.954Z</time></trkpt><trkpt lat="40.8151033" lon="8.35118"><ele>33.333333333333336</ele><time>2026-04-16T07:35:02.017Z</time></trkpt><trkpt lat="40.81511" lon="8.3509433"><ele>33.0</ele><time>2026-04-16T07:35:02.948Z</time></trkpt><trkpt lat="40.8151133" lon="8.3507033"><ele>33.0</ele><time>2026-04-16T07:35:03.952Z</time></trkpt><trkpt lat="40.8151133" lon="8.350215"><ele>33.0</ele><time>2026-04-16T07:35:05.954Z</time></trkpt><trkpt lat="40.81512" lon="8.349715"><ele>35.0</ele><time>2026-04-16T07:35:07.995Z</time></trkpt><trkpt lat="40.8151283" lon="8.3492083"><ele>37.0</ele><time>2026-04-16T07:35:09.954Z</time></trkpt><trkpt lat="40.8151333" lon="8.3489533"><ele>38.5</ele><time>2026-04-16T07:35:10.96Z</time></trkpt><trkpt lat="40.8151383" lon="8.3484233"><ele>40.0</ele><time>2026-04-16T07:35:12.959Z</time></trkpt><trkpt lat="40.8151417" lon="8.348135"><ele>39.0</ele><time>2026-04-16T07:35:13.998Z</time></trkpt><trkpt lat="40.815145" lon="8.3478417"><ele>38.0</ele><time>2026-04-16T07:35:14.95Z</time></trkpt><trkpt lat="40.81516" lon="8.3472633"><ele>40.5</ele><time>2026-04-16T07:35:16.952Z</time></trkpt><trkpt lat="40.815165" lon="8.34698"><ele>43.0</ele><time>2026-04-16T07:35:17.953Z</time></trkpt><trkpt lat="40.815175" lon="8.3464283"><ele>44.0</ele><time>2026-04-16T07:35:20.001Z</time></trkpt><trkpt lat="40.8151833" lon="8.3458883"><ele>45.0</ele><time>2026-04-16T07:35:21.957Z</time></trkpt><trkpt lat="40.8151867" lon="8.34562"><ele>42.0</ele><time>2026-04-16T07:35:22.951Z</time></trkpt><trkpt lat="40.8151917" lon="8.345075"><ele>39.0</ele><time>2026-04-16T07:35:24.954Z</time></trkpt><trkpt lat="40.8151933" lon="8.34452"><ele>38.0</ele><time>2026-04-16T07:35:26.954Z</time></trkpt><trkpt lat="40.815195" lon="8.3442383"><ele>37.0</ele><time>2026-04-16T07:35:27.958Z</time></trkpt><trkpt lat="40.8151967" lon="8.3436733"><ele>36.0</ele><time>2026-04-16T07:35:29.953Z</time></trkpt><trkpt lat="40.8152" lon="8.3430983"><ele>35.0</ele><time>2026-04-16T07:35:32.013Z</time></trkpt><trkpt lat="40.8152" lon="8.3428117"><ele>35.0</ele><time>2026-04-16T07:35:32.949Z</time></trkpt><trkpt lat="40.81521" lon="8.3422817"><ele>35.0</ele><time>2026-04-16T07:35:34.956Z</time></trkpt><trkpt lat="40.8152733" lon="8.3415483"><ele>34.0</ele><time>2026-04-16T07:35:37.993Z</time></trkpt><trkpt lat="40.8153317" lon="8.3410683"><ele>33.0</ele><time>2026-04-16T07:35:39.952Z</time></trkpt><trkpt lat="40.81537" lon="8.340835"><ele>33.0</ele><time>2026-04-16T07:35:40.959Z</time></trkpt><trkpt lat="40.8154117" lon="8.34061"><ele>33.0</ele><time>2026-04-16T07:35:41.957Z</time></trkpt><trkpt lat="40.8154517" lon="8.3403917"><ele>33.0</ele><time>2026-04-16T07:35:42.959Z</time></trkpt><trkpt lat="40.8155383" lon="8.3399683"><ele>34.0</ele><time>2026-04-16T07:35:44.946Z</time></trkpt><trkpt lat="40.81564" lon="8.339545"><ele>35.0</ele><time>2026-04-16T07:35:46.949Z</time></trkpt><trkpt lat="40.8156967" lon="8.33934"><ele>35.0</ele><time>2026-04-16T07:35:47.951Z</time></trkpt><trkpt lat="40.815815" lon="8.3389467"><ele>35.0</ele><time>2026-04-16T07:35:50Z</time></trkpt><trkpt lat="40.815995" lon="8.3384167"><ele>37.0</ele><time>2026-04-16T07:35:52.956Z</time></trkpt><trkpt lat="40.8161383" lon="8.3380267"><ele>39.0</ele><time>2026-04-16T07:35:54.956Z</time></trkpt><trkpt lat="40.8163033" lon="8.3376067"><ele>39.0</ele><time>2026-04-16T07:35:56.957Z</time></trkpt><trkpt lat="40.8163983" lon="8.33738"><ele>39.0</ele><time>2026-04-16T07:35:57.954Z</time></trkpt><trkpt lat="40.8166033" lon="8.3368967"><ele>40.0</ele><time>2026-04-16T07:35:59.955Z</time></trkpt><trkpt lat="40.8167067" lon="8.33665"><ele>41.0</ele><time>2026-04-16T07:36:00.955Z</time></trkpt><trkpt lat="40.8168117" lon="8.3364"><ele>42.0</ele><time>2026-04-16T07:36:02.018Z</time></trkpt><trkpt lat="40.8169167" lon="8.336155"><ele>39.0</ele><time>2026-04-16T07:36:02.957Z</time></trkpt><trkpt lat="40.8171217" lon="8.3356733"><ele>36.0</ele><time>2026-04-16T07:36:04.957Z</time></trkpt><trkpt lat="40.8174283" lon="8.33496"><ele>36.5</ele><time>2026-04-16T07:36:08.007Z</time></trkpt><trkpt lat="40.817625" lon="8.334485"><ele>37.0</ele><time>2026-04-16T07:36:09.956Z</time></trkpt><trkpt lat="40.8177233" lon="8.3342483"><ele>37.5</ele><time>2026-04-16T07:36:10.952Z</time></trkpt><trkpt lat="40.8179167" lon="8.3337883"><ele>38.0</ele><time>2026-04-16T07:36:12.955Z</time></trkpt><trkpt lat="40.8181083" lon="8.33333"><ele>38.0</ele><time>2026-04-16T07:36:14.956Z</time></trkpt><trkpt lat="40.8182017" lon="8.3331017"><ele>38.0</ele><time>2026-04-16T07:36:15.957Z</time></trkpt><trkpt lat="40.8182983" lon="8.3328717"><ele>38.0</ele><time>2026-04-16T07:36:16.95Z</time></trkpt><trkpt lat="40.818395" lon="8.3326433"><ele>36.5</ele><time>2026-04-16T07:36:17.956Z</time></trkpt><trkpt lat="40.8185917" lon="8.3321867"><ele>35.0</ele><time>2026-04-16T07:36:19.997Z</time></trkpt><trkpt lat="40.8188983" lon="8.3315033"><ele>35.5</ele><time>2026-04-16T07:36:22.955Z</time></trkpt><trkpt lat="40.8191" lon="8.3310433"><ele>36.0</ele><time>2026-04-16T07:36:24.952Z</time></trkpt><trkpt lat="40.8192017" lon="8.3308133"><ele>36.5</ele><time>2026-04-16T07:36:26.013Z</time></trkpt><trkpt lat="40.8193967" lon="8.3303483"><ele>37.0</ele><time>2026-04-16T07:36:27.951Z</time></trkpt><trkpt lat="40.8197017" lon="8.3296367"><ele>36.0</ele><time>2026-04-16T07:36:30.95Z</time></trkpt><trkpt lat="40.81991" lon="8.3291417"><ele>35.0</ele><time>2026-04-16T07:36:32.947Z</time></trkpt><trkpt lat="40.8200133" lon="8.3288933"><ele>35.0</ele><time>2026-04-16T07:36:33.949Z</time></trkpt><trkpt lat="40.8202167" lon="8.3284167"><ele>35.0</ele><time>2026-04-16T07:36:35.953Z</time></trkpt><trkpt lat="40.8204117" lon="8.3279433"><ele>35.0</ele><time>2026-04-16T07:36:37.994Z</time></trkpt><trkpt lat="40.8205083" lon="8.32771"><ele>35.0</ele><time>2026-04-16T07:36:38.948Z</time></trkpt><trkpt lat="40.8207033" lon="8.327245"><ele>40.0</ele><time>2026-04-16T07:36:40.954Z</time></trkpt><trkpt lat="40.821025" lon="8.326565"><ele>39.66666666666667</ele><time>2026-04-16T07:36:43.998Z</time></trkpt><trkpt lat="40.8211433" lon="8.3263433"><ele>39.333333333333336</ele><time>2026-04-16T07:36:44.956Z</time></trkpt><trkpt lat="40.8212683" lon="8.3261333"><ele>39.0</ele><time>2026-04-16T07:36:45.952Z</time></trkpt><trkpt lat="40.8215433" lon="8.3257467"><ele>38.5</ele><time>2026-04-16T07:36:47.953Z</time></trkpt><trkpt lat="40.8216867" lon="8.32556"><ele>38.0</ele><time>2026-04-16T07:36:48.957Z</time></trkpt><trkpt lat="40.8219767" lon="8.3252017"><ele>38.0</ele><time>2026-04-16T07:36:50.95Z</time></trkpt><trkpt lat="40.82229" lon="8.3248783"><ele>38.0</ele><time>2026-04-16T07:36:52.948Z</time></trkpt><trkpt lat="40.8224517" lon="8.3247267"><ele>37.5</ele><time>2026-04-16T07:36:53.953Z</time></trkpt><trkpt lat="40.8227933" lon="8.324445"><ele>37.0</ele><time>2026-04-16T07:36:56.007Z</time></trkpt><trkpt lat="40.8231633" lon="8.32421"><ele>37.0</ele><time>2026-04-16T07:36:57.952Z</time></trkpt><trkpt lat="40.8233567" lon="8.3241033"><ele>37.0</ele><time>2026-04-16T07:36:58.951Z</time></trkpt><trkpt lat="40.8235567" lon="8.3239983"><ele>37.0</ele><time>2026-04-16T07:36:59.951Z</time></trkpt><trkpt lat="40.8237617" lon="8.3238983"><ele>35.0</ele><time>2026-04-16T07:37:00.951Z</time></trkpt><trkpt lat="40.82397" lon="8.3238067"><ele>33.0</ele><time>2026-04-16T07:37:02.008Z</time></trkpt><trkpt lat="40.8246083" lon="8.3236033"><ele>33.0</ele><time>2026-04-16T07:37:04.955Z</time></trkpt><trkpt lat="40.8250333" lon="8.3234983"><ele>33.0</ele><time>2026-04-16T07:37:06.952Z</time></trkpt><trkpt lat="40.8252367" lon="8.3234483"><ele>34.5</ele><time>2026-04-16T07:37:08.005Z</time></trkpt><trkpt lat="40.8256067" lon="8.3233483"><ele>36.0</ele><time>2026-04-16T07:37:09.954Z</time></trkpt><trkpt lat="40.8261133" lon="8.3231933"><ele>36.333333333333336</ele><time>2026-04-16T07:37:12.955Z</time></trkpt><trkpt lat="40.8262783" lon="8.3231367"><ele>36.66666666666667</ele><time>2026-04-16T07:37:13.999Z</time></trkpt><trkpt lat="40.8264417" lon="8.32307"><ele>37.0</ele><time>2026-04-16T07:37:14.952Z</time></trkpt><trkpt lat="40.8267733" lon="8.3228967"><ele>37.0</ele><time>2026-04-16T07:37:16.969Z</time></trkpt><trkpt lat="40.8269383" lon="8.3227933"><ele>37.0</ele><time>2026-04-16T07:37:17.953Z</time></trkpt><trkpt lat="40.827265" lon="8.3225633"><ele>37.0</ele><time>2026-04-16T07:37:19.997Z</time></trkpt><trkpt lat="40.8275817" lon="8.32231"><ele>37.0</ele><time>2026-04-16T07:37:21.957Z</time></trkpt><trkpt lat="40.8277317" lon="8.322175"><ele>36.0</ele><time>2026-04-16T07:37:22.95Z</time></trkpt><trkpt lat="40.8278767" lon="8.3220367"><ele>35.0</ele><time>2026-04-16T07:37:23.952Z</time></trkpt><trkpt lat="40.8280183" lon="8.32189"><ele>34.0</ele><time>2026-04-16T07:37:24.95Z</time></trkpt><trkpt lat="40.8283" lon="8.3215667"><ele>34.5</ele><time>2026-04-16T07:37:26.952Z</time></trkpt><trkpt lat="40.8285633" lon="8.3212067"><ele>35.0</ele><time>2026-04-16T07:37:28.956Z</time></trkpt><trkpt lat="40.8286867" lon="8.3210167"><ele>35.0</ele><time>2026-04-16T07:37:29.955Z</time></trkpt><trkpt lat="40.8289167" lon="8.3206317"><ele>35.0</ele><time>2026-04-16T07:37:32.006Z</time></trkpt><trkpt lat="40.8292217" lon="8.3200267"><ele>36.5</ele><time>2026-04-16T07:37:34.956Z</time></trkpt><trkpt lat="40.8293867" lon="8.31959"><ele>38.0</ele><time>2026-04-16T07:37:36.957Z</time></trkpt><trkpt lat="40.8294617" lon="8.3193633"><ele>38.0</ele><time>2026-04-16T07:37:38.003Z</time></trkpt><trkpt lat="40.8295317" lon="8.3191367"><ele>38.0</ele><time>2026-04-16T07:37:38.949Z</time></trkpt><trkpt lat="40.8295983" lon="8.3189083"><ele>38.0</ele><time>2026-04-16T07:37:39.951Z</time></trkpt><trkpt lat="40.829725" lon="8.3184517"><ele>35.0</ele><time>2026-04-16T07:37:41.952Z</time></trkpt><trkpt lat="40.829875" lon="8.3177567"><ele>35.0</ele><time>2026-04-16T07:37:44.953Z</time></trkpt><trkpt lat="40.8299483" lon="8.31726"><ele>35.0</ele><time>2026-04-16T07:37:46.946Z</time></trkpt><trkpt lat="40.8299833" lon="8.3170067"><ele>34.5</ele><time>2026-04-16T07:37:47.951Z</time></trkpt><trkpt lat="40.8300583" lon="8.3164933"><ele>34.0</ele><time>2026-04-16T07:37:50Z</time></trkpt><trkpt lat="40.83016" lon="8.31574"><ele>31.5</ele><time>2026-04-16T07:37:52.955Z</time></trkpt><trkpt lat="40.830225" lon="8.315265"><ele>29.0</ele><time>2026-04-16T07:37:54.951Z</time></trkpt><trkpt lat="40.8302583" lon="8.3150217"><ele>29.5</ele><time>2026-04-16T07:37:56.019Z</time></trkpt><trkpt lat="40.8303233" lon="8.3145333"><ele>30.0</ele><time>2026-04-16T07:37:57.96Z</time></trkpt><trkpt lat="40.8303867" lon="8.3140533"><ele>31.0</ele><time>2026-04-16T07:37:59.955Z</time></trkpt><trkpt lat="40.8304183" lon="8.3138167"><ele>32.0</ele><time>2026-04-16T07:38:00.96Z</time></trkpt><trkpt lat="40.8304483" lon="8.313575"><ele>33.0</ele><time>2026-04-16T07:38:02.007Z</time></trkpt><trkpt lat="40.8304833" lon="8.31333"><ele>34.5</ele><time>2026-04-16T07:38:02.951Z</time></trkpt><trkpt lat="40.8305583" lon="8.3128317"><ele>36.0</ele><time>2026-04-16T07:38:04.95Z</time></trkpt><trkpt lat="40.830635" lon="8.3122817"><ele>36.333333333333336</ele><time>2026-04-16T07:38:06.951Z</time></trkpt><trkpt lat="40.8306767" lon="8.3119967"><ele>36.66666666666667</ele><time>2026-04-16T07:38:08.004Z</time></trkpt><trkpt lat="40.830715" lon="8.3117133"><ele>37.0</ele><time>2026-04-16T07:38:08.951Z</time></trkpt><trkpt lat="40.8307533" lon="8.311435"><ele>37.5</ele><time>2026-04-16T07:38:09.945Z</time></trkpt><trkpt lat="40.8308317" lon="8.3108867"><ele>38.0</ele><time>2026-04-16T07:38:11.951Z</time></trkpt><trkpt lat="40.8309117" lon="8.3103483"><ele>38.0</ele><time>2026-04-16T07:38:14.005Z</time></trkpt><trkpt lat="40.8309517" lon="8.3100833"><ele>38.0</ele><time>2026-04-16T07:38:14.954Z</time></trkpt><trkpt lat="40.8309933" lon="8.3098167"><ele>38.0</ele><time>2026-04-16T07:38:15.95Z</time></trkpt><trkpt lat="40.8311233" lon="8.3090283"><ele>37.5</ele><time>2026-04-16T07:38:18.963Z</time></trkpt><trkpt lat="40.83122" lon="8.3085083"><ele>37.0</ele><time>2026-04-16T07:38:20.951Z</time></trkpt><trkpt lat="40.8312817" lon="8.3082533"><ele>36.66666666666667</ele><time>2026-04-16T07:38:21.953Z</time></trkpt><trkpt lat="40.83135" lon="8.308005"><ele>36.333333333333336</ele><time>2026-04-16T07:38:22.95Z</time></trkpt><trkpt lat="40.8314267" lon="8.30776"><ele>36.0</ele><time>2026-04-16T07:38:23.95Z</time></trkpt><trkpt lat="40.8315833" lon="8.307285"><ele>31.0</ele><time>2026-04-16T07:38:25.981Z</time></trkpt><trkpt lat="40.8318083" lon="8.3065883"><ele>29.0</ele><time>2026-04-16T07:38:28.953Z</time></trkpt><trkpt lat="40.8319583" lon="8.30613"><ele>27.0</ele><time>2026-04-16T07:38:30.952Z</time></trkpt><trkpt lat="40.8320317" lon="8.3059083"><ele>21.5</ele><time>2026-04-16T07:38:32.011Z</time></trkpt><trkpt lat="40.83217" lon="8.3054967"><ele>16.0</ele><time>2026-04-16T07:38:33.953Z</time></trkpt><trkpt lat="40.8322327" lon="8.3053037"><ele>16.0</ele><time>2026-04-16T07:38:34.95Z</time></trkpt><trkpt lat="40.8322926" lon="8.305112"><ele>16.0</ele><time>2026-04-16T07:38:35.946Z</time></trkpt><trkpt lat="40.8324269" lon="8.3047136"><ele>13.5</ele><time>2026-04-16T07:38:38Z</time></trkpt><trkpt lat="40.8324947" lon="8.3045132"><ele>11.0</ele><time>2026-04-16T07:38:38.951Z</time></trkpt><trkpt lat="40.8326392" lon="8.3040929"><ele>17.0</ele><time>2026-04-16T07:38:40.947Z</time></trkpt><trkpt lat="40.8327838" lon="8.3036655"><ele>23.0</ele><time>2026-04-16T07:38:42.95Z</time></trkpt><trkpt lat="40.8328567" lon="8.303449"><ele>23.0</ele><time>2026-04-16T07:38:43.995Z</time></trkpt><trkpt lat="40.8330019" lon="8.3030191"><ele>23.0</ele><time>2026-04-16T07:38:45.953Z</time></trkpt><trkpt lat="40.8332191" lon="8.302359"><ele>23.333333333333336</ele><time>2026-04-16T07:38:48.946Z</time></trkpt><trkpt lat="40.8332943" lon="8.3021412"><ele>23.666666666666668</ele><time>2026-04-16T07:38:50.005Z</time></trkpt><trkpt lat="40.8333653" lon="8.3019347"><ele>24.0</ele><time>2026-04-16T07:38:50.953Z</time></trkpt><trkpt lat="40.8335074" lon="8.3015016"><ele>22.5</ele><time>2026-04-16T07:38:52.953Z</time></trkpt><trkpt lat="40.833579" lon="8.3012828"><ele>21.0</ele><time>2026-04-16T07:38:53.955Z</time></trkpt><trkpt lat="40.8337337" lon="8.3008352"><ele>22.0</ele><time>2026-04-16T07:38:56.017Z</time></trkpt><trkpt lat="40.8338834" lon="8.3004"><ele>23.0</ele><time>2026-04-16T07:38:57.948Z</time></trkpt><trkpt lat="40.8339593" lon="8.3001794"><ele>24.0</ele><time>2026-04-16T07:38:58.954Z</time></trkpt><trkpt lat="40.8341043" lon="8.2997466"><ele>25.0</ele><time>2026-04-16T07:39:00.955Z</time></trkpt><trkpt lat="40.8341757" lon="8.2995285"><ele>25.0</ele><time>2026-04-16T07:39:02.006Z</time></trkpt><trkpt lat="40.8342375" lon="8.299317"><ele>25.0</ele><time>2026-04-16T07:39:02.95Z</time></trkpt><trkpt lat="40.8343583" lon="8.29887"><ele>24.5</ele><time>2026-04-16T07:39:04.947Z</time></trkpt><trkpt lat="40.834415" lon="8.2986433"><ele>24.0</ele><time>2026-04-16T07:39:05.948Z</time></trkpt><trkpt lat="40.8345267" lon="8.29819"><ele>27.0</ele><time>2026-04-16T07:39:07.997Z</time></trkpt><trkpt lat="40.8346833" lon="8.2975217"><ele>28.5</ele><time>2026-04-16T07:39:10.947Z</time></trkpt><trkpt lat="40.8347867" lon="8.2970917"><ele>30.0</ele><time>2026-04-16T07:39:12.954Z</time></trkpt><trkpt lat="40.834835" lon="8.29688"><ele>30.0</ele><time>2026-04-16T07:39:14.002Z</time></trkpt><trkpt lat="40.8349283" lon="8.2964617"><ele>30.0</ele><time>2026-04-16T07:39:15.955Z</time></trkpt><trkpt lat="40.8349733" lon="8.2962517"><ele>31.5</ele><time>2026-04-16T07:39:16.956Z</time></trkpt><trkpt lat="40.83502" lon="8.296035"><ele>33.0</ele><time>2026-04-16T07:39:17.957Z</time></trkpt><trkpt lat="40.83512" lon="8.29561"><ele>32.5</ele><time>2026-04-16T07:39:19.999Z</time></trkpt><trkpt lat="40.83517" lon="8.2954"><ele>32.0</ele><time>2026-04-16T07:39:20.959Z</time></trkpt><trkpt lat="40.8352667" lon="8.2949817"><ele>33.0</ele><time>2026-04-16T07:39:22.952Z</time></trkpt><trkpt lat="40.835355" lon="8.2945767"><ele>34.0</ele><time>2026-04-16T07:39:24.955Z</time></trkpt><trkpt lat="40.8354017" lon="8.29438"><ele>34.0</ele><time>2026-04-16T07:39:26.019Z</time></trkpt><trkpt lat="40.8354483" lon="8.294185"><ele>34.0</ele><time>2026-04-16T07:39:26.952Z</time></trkpt><trkpt lat="40.83549" lon="8.2939883"><ele>34.0</ele><time>2026-04-16T07:39:27.956Z</time></trkpt><trkpt lat="40.8355817" lon="8.2936017"><ele>34.66666666666667</ele><time>2026-04-16T07:39:29.962Z</time></trkpt><trkpt lat="40.8356717" lon="8.293235"><ele>35.333333333333336</ele><time>2026-04-16T07:39:32.007Z</time></trkpt><trkpt lat="40.8357133" lon="8.2930567"><ele>36.0</ele><time>2026-04-16T07:39:32.951Z</time></trkpt><trkpt lat="40.8357917" lon="8.2927083"><ele>36.5</ele><time>2026-04-16T07:39:34.952Z</time></trkpt><trkpt lat="40.8359133" lon="8.2921833"><ele>37.0</ele><time>2026-04-16T07:39:37.999Z</time></trkpt><trkpt lat="40.835995" lon="8.291825"><ele>37.333333333333336</ele><time>2026-04-16T07:39:39.957Z</time></trkpt><trkpt lat="40.8360333" lon="8.2916433"><ele>37.666666666666664</ele><time>2026-04-16T07:39:40.958Z</time></trkpt><trkpt lat="40.836075" lon="8.2914583"><ele>38.0</ele><time>2026-04-16T07:39:41.954Z</time></trkpt><trkpt lat="40.8361617" lon="8.2910833"><ele>39.0</ele><time>2026-04-16T07:39:43.999Z</time></trkpt><trkpt lat="40.8362817" lon="8.290515"><ele>40.0</ele><time>2026-04-16T07:39:46.954Z</time></trkpt><trkpt lat="40.8363333" lon="8.2901317"><ele>40.0</ele><time>2026-04-16T07:39:48.957Z</time></trkpt><trkpt lat="40.836345" lon="8.2899417"><ele>40.0</ele><time>2026-04-16T07:39:49.998Z</time></trkpt><trkpt lat="40.8363667" lon="8.2895533"><ele>40.0</ele><time>2026-04-16T07:39:51.955Z</time></trkpt><trkpt lat="40.8363767" lon="8.28936"><ele>40.5</ele><time>2026-04-16T07:39:52.961Z</time></trkpt><trkpt lat="40.8364017" lon="8.2889617"><ele>41.0</ele><time>2026-04-16T07:39:54.948Z</time></trkpt><trkpt lat="40.836415" lon="8.2887617"><ele>41.0</ele><time>2026-04-16T07:39:56.019Z</time></trkpt><trkpt lat="40.83643" lon="8.28856"><ele>41.0</ele><time>2026-04-16T07:39:56.95Z</time></trkpt><trkpt lat="40.8364467" lon="8.2883617"><ele>41.0</ele><time>2026-04-16T07:39:57.957Z</time></trkpt><trkpt lat="40.836475" lon="8.2880033"><ele>41.33333333333333</ele><time>2026-04-16T07:39:59.954Z</time></trkpt><trkpt lat="40.8365383" lon="8.2877433"><ele>41.666666666666664</ele><time>2026-04-16T07:40:02.008Z</time></trkpt><trkpt lat="40.836605" lon="8.2876583"><ele>42.0</ele><time>2026-04-16T07:40:02.947Z</time></trkpt><trkpt lat="40.8368067" lon="8.2875667"><ele>42.0</ele><time>2026-04-16T07:40:04.952Z</time></trkpt><trkpt lat="40.83719" lon="8.2874917"><ele>42.0</ele><time>2026-04-16T07:40:08Z</time></trkpt><trkpt lat="40.8374617" lon="8.287435"><ele>42.0</ele><time>2026-04-16T07:40:09.957Z</time></trkpt><trkpt lat="40.8376033" lon="8.287425"><ele>42.0</ele><time>2026-04-16T07:40:10.95Z</time></trkpt><trkpt lat="40.8377533" lon="8.2874317"><ele>42.0</ele><time>2026-04-16T07:40:11.947Z</time></trkpt><trkpt lat="40.8380733" lon="8.2874483"><ele>38.0</ele><time>2026-04-16T07:40:13.994Z</time></trkpt><trkpt lat="40.8385717" lon="8.287625"><ele>38.0</ele><time>2026-04-16T07:40:16.945Z</time></trkpt><trkpt lat="40.8389067" lon="8.2877667"><ele>38.0</ele><time>2026-04-16T07:40:18.953Z</time></trkpt><trkpt lat="40.83907" lon="8.2878383"><ele>38.0</ele><time>2026-04-16T07:40:19.998Z</time></trkpt><trkpt lat="40.8393883" lon="8.2879767"><ele>38.0</ele><time>2026-04-16T07:40:21.949Z</time></trkpt><trkpt lat="40.839855" lon="8.2881767"><ele>38.5</ele><time>2026-04-16T07:40:24.957Z</time></trkpt><trkpt lat="40.8401717" lon="8.28831"><ele>39.0</ele><time>2026-04-16T07:40:26.951Z</time></trkpt><trkpt lat="40.8406783" lon="8.2884933"><ele>38.5</ele><time>2026-04-16T07:40:29.947Z</time></trkpt><trkpt lat="40.8410367" lon="8.2886017"><ele>38.0</ele><time>2026-04-16T07:40:32.011Z</time></trkpt><trkpt lat="40.841215" lon="8.2886617"><ele>38.0</ele><time>2026-04-16T07:40:32.945Z</time></trkpt><trkpt lat="40.8415767" lon="8.2887783"><ele>38.0</ele><time>2026-04-16T07:40:34.952Z</time></trkpt><trkpt lat="40.841925" lon="8.2888967"><ele>36.5</ele><time>2026-04-16T07:40:36.953Z</time></trkpt><trkpt lat="40.842095" lon="8.2889583"><ele>35.0</ele><time>2026-04-16T07:40:37.997Z</time></trkpt><trkpt lat="40.84244" lon="8.289055"><ele>35.0</ele><time>2026-04-16T07:40:39.957Z</time></trkpt><trkpt lat="40.8426233" lon="8.28906"><ele>35.0</ele><time>2026-04-16T07:40:40.963Z</time></trkpt><trkpt lat="40.8428217" lon="8.2890383"><ele>35.0</ele><time>2026-04-16T07:40:41.953Z</time></trkpt><trkpt lat="40.8432333" lon="8.2889817"><ele>35.5</ele><time>2026-04-16T07:40:43.998Z</time></trkpt><trkpt lat="40.8434267" lon="8.2889583"><ele>36.0</ele><time>2026-04-16T07:40:44.957Z</time></trkpt><trkpt lat="40.8439517" lon="8.288985"><ele>36.333333333333336</ele><time>2026-04-16T07:40:47.956Z</time></trkpt><trkpt lat="40.844125" lon="8.2890283"><ele>36.66666666666667</ele><time>2026-04-16T07:40:48.949Z</time></trkpt><trkpt lat="40.8442883" lon="8.2890683"><ele>37.0</ele><time>2026-04-16T07:40:49.998Z</time></trkpt><trkpt lat="40.8445917" lon="8.2891433"><ele>36.0</ele><time>2026-04-16T07:40:51.951Z</time></trkpt><trkpt lat="40.8449033" lon="8.2892067"><ele>35.0</ele><time>2026-04-16T07:40:53.955Z</time></trkpt><trkpt lat="40.84506" lon="8.2892333"><ele>35.0</ele><time>2026-04-16T07:40:54.949Z</time></trkpt><trkpt lat="40.8453567" lon="8.2892933"><ele>35.0</ele><time>2026-04-16T07:40:56.951Z</time></trkpt><trkpt lat="40.84581" lon="8.2894133"><ele>34.5</ele><time>2026-04-16T07:40:59.955Z</time></trkpt><trkpt lat="40.846125" lon="8.289565"><ele>34.0</ele><time>2026-04-16T07:41:02.011Z</time></trkpt><trkpt lat="40.8466517" lon="8.289875"><ele>32.5</ele><time>2026-04-16T07:41:04.958Z</time></trkpt><trkpt lat="40.8470217" lon="8.2900967"><ele>31.0</ele><time>2026-04-16T07:41:06.949Z</time></trkpt><trkpt lat="40.8472117" lon="8.2902117"><ele>31.0</ele><time>2026-04-16T07:41:08.001Z</time></trkpt><trkpt lat="40.8475933" lon="8.29043"><ele>31.0</ele><time>2026-04-16T07:41:09.954Z</time></trkpt><trkpt lat="40.8479683" lon="8.29064"><ele>32.0</ele><time>2026-04-16T07:41:11.951Z</time></trkpt><trkpt lat="40.8481567" lon="8.2907483"><ele>33.0</ele><time>2026-04-16T07:41:12.952Z</time></trkpt><trkpt lat="40.84834" lon="8.2908583"><ele>34.0</ele><time>2026-04-16T07:41:13.998Z</time></trkpt><trkpt lat="40.8485233" lon="8.2909683"><ele>31.0</ele><time>2026-04-16T07:41:14.959Z</time></trkpt><trkpt lat="40.84889" lon="8.2911867"><ele>28.0</ele><time>2026-04-16T07:41:16.954Z</time></trkpt><trkpt lat="40.849255" lon="8.29139"><ele>28.0</ele><time>2026-04-16T07:41:18.956Z</time></trkpt><trkpt lat="40.84943" lon="8.29149"><ele>28.0</ele><time>2026-04-16T07:41:20.004Z</time></trkpt><trkpt lat="40.8496033" lon="8.29159"><ele>28.0</ele><time>2026-04-16T07:41:20.951Z</time></trkpt><trkpt lat="40.8497717" lon="8.2916917"><ele>28.0</ele><time>2026-04-16T07:41:21.95Z</time></trkpt><trkpt lat="40.850095" lon="8.2918733"><ele>28.0</ele><time>2026-04-16T07:41:23.952Z</time></trkpt><trkpt lat="40.85038" lon="8.2920333"><ele>28.333333333333336</ele><time>2026-04-16T07:41:26.014Z</time></trkpt><trkpt lat="40.8505033" lon="8.2921017"><ele>28.666666666666664</ele><time>2026-04-16T07:41:26.947Z</time></trkpt><trkpt lat="40.8507317" lon="8.2921833"><ele>29.0</ele><time>2026-04-16T07:41:28.953Z</time></trkpt><trkpt lat="40.851075" lon="8.2921417"><ele>29.0</ele><time>2026-04-16T07:41:32.018Z</time></trkpt><trkpt lat="40.8511983" lon="8.29207"><ele>29.0</ele><time>2026-04-16T07:41:32.957Z</time></trkpt><trkpt lat="40.85133" lon="8.2919667"><ele>29.0</ele><time>2026-04-16T07:41:33.954Z</time></trkpt><trkpt lat="40.8516067" lon="8.29174"><ele>29.0</ele><time>2026-04-16T07:41:35.959Z</time></trkpt><trkpt lat="40.8517483" lon="8.29162"><ele>29.0</ele><time>2026-04-16T07:41:36.953Z</time></trkpt><trkpt lat="40.8520417" lon="8.291375"><ele>28.5</ele><time>2026-04-16T07:41:38.951Z</time></trkpt><trkpt lat="40.8523183" lon="8.2911217"><ele>28.0</ele><time>2026-04-16T07:41:40.954Z</time></trkpt><trkpt lat="40.85245" lon="8.2910033"><ele>27.5</ele><time>2026-04-16T07:41:41.949Z</time></trkpt><trkpt lat="40.8527183" lon="8.29077"><ele>27.0</ele><time>2026-04-16T07:41:43.996Z</time></trkpt><trkpt lat="40.8531483" lon="8.2904217"><ele>24.0</ele><time>2026-04-16T07:41:46.961Z</time></trkpt><trkpt lat="40.853465" lon="8.2902483"><ele>21.0</ele><time>2026-04-16T07:41:48.951Z</time></trkpt><trkpt lat="40.8536183" lon="8.2901733"><ele>21.0</ele><time>2026-04-16T07:41:49.993Z</time></trkpt><trkpt lat="40.8537583" lon="8.2901"><ele>21.0</ele><time>2026-04-16T07:41:50.949Z</time></trkpt><trkpt lat="40.8538917" lon="8.290025"><ele>21.0</ele><time>2026-04-16T07:41:51.954Z</time></trkpt><trkpt lat="40.854165" lon="8.289875"><ele>19.666666666666668</ele><time>2026-04-16T07:41:53.952Z</time></trkpt><trkpt lat="40.854435" lon="8.289725"><ele>18.333333333333336</ele><time>2026-04-16T07:41:56.015Z</time></trkpt><trkpt lat="40.854565" lon="8.28965"><ele>17.0</ele><time>2026-04-16T07:41:56.946Z</time></trkpt><trkpt lat="40.8548283" lon="8.2895083"><ele>18.0</ele><time>2026-04-16T07:41:58.953Z</time></trkpt><trkpt lat="40.855215" lon="8.28929"><ele>19.0</ele><time>2026-04-16T07:42:02.015Z</time></trkpt><trkpt lat="40.8554733" lon="8.2891483"><ele>19.0</ele><time>2026-04-16T07:42:03.952Z</time></trkpt><trkpt lat="40.8556" lon="8.289075"><ele>19.0</ele><time>2026-04-16T07:42:04.953Z</time></trkpt><trkpt lat="40.8557283" lon="8.2890017"><ele>19.0</ele><time>2026-04-16T07:42:05.955Z</time></trkpt><trkpt lat="40.856145" lon="8.288775"><ele>11.0</ele><time>2026-04-16T07:42:08.945Z</time></trkpt><trkpt lat="40.85642" lon="8.2886067"><ele>3.0</ele><time>2026-04-16T07:42:10.952Z</time></trkpt><trkpt lat="40.8565617" lon="8.2885283"><ele>2.0</ele><time>2026-04-16T07:42:11.951Z</time></trkpt><trkpt lat="40.8568383" lon="8.2884167"><ele>1.0</ele><time>2026-04-16T07:42:13.996Z</time></trkpt><trkpt lat="40.857095" lon="8.2884867"><ele>1.0</ele><time>2026-04-16T07:42:15.955Z</time></trkpt><trkpt lat="40.8572017" lon="8.2885817"><ele>1.0</ele><time>2026-04-16T07:42:16.954Z</time></trkpt><trkpt lat="40.8572917" lon="8.2886883"><ele>1.0</ele><time>2026-04-16T07:42:17.949Z</time></trkpt><trkpt lat="40.85742" lon="8.2888633"><ele>1.0</ele><time>2026-04-16T07:42:20Z</time></trkpt><trkpt lat="40.8574633" lon="8.2889317"><ele>2.0</ele><time>2026-04-16T07:42:20.953Z</time></trkpt><trkpt lat="40.8575283" lon="8.2890217"><ele>2.0</ele><time>2026-04-16T07:42:22.953Z</time></trkpt></trkseg></trk></gpx>